<?xml version="1.0" encoding="UTF-8" standalone="no" ?><gpx xmlns="http://www.topografix.com/GPX/1/1" xmlns:gpxx="http://www.garmin.com/xmlschemas/GpxExtensions/v3" xmlns:wptx1="http://www.garmin.com/xmlschemas/WaypointExtension/v1" xmlns:gpxtpx="http://www.garmin.com/xmlschemas/TrackPointExtension/v1" creator="GuideVTT.com" version="1.1" xmlns:xsi="http://www.w3.org/2001/XMLSchema-instance" xsi:schemaLocation="http://www.topografix.com/GPX/1/1 http://www.topografix.com/GPX/1/1/gpx.xsd http://www.garmin.com/xmlschemas/GpxExtensions/v3 http://www8.garmin.com/xmlschemas/GpxExtensionsv3.xsd http://www.garmin.com/xmlschemas/WaypointExtension/v1 http://www8.garmin.com/xmlschemas/WaypointExtensionv1.xsd http://www.garmin.com/xmlschemas/TrackPointExtension/v1 http://www.garmin.com/xmlschemas/TrackPointExtensionv1.xsd">
<metadata><link href="http://www.garmin.com"><text>Garmin International</text></link><time>2013-06-22T15:13:50Z</time></metadata>
<trk><name>autour_du_gibloux.gpx</name><extensions><gpxx:TrackExtension><gpxx:DisplayColor>Cyan</gpxx:DisplayColor></gpxx:TrackExtension></extensions><trkseg>
<trkpt lat="46.71589637594832" lon="7.096620787809128"><ele></ele><time>2016-8-29T0:26:9Z</time></trkpt>
<trkpt lat="46.715718196669165" lon="7.0956867852635455"><ele></ele><time>2016-8-29T0:26:12Z</time></trkpt>
<trkpt lat="46.71571394641708" lon="7.0945846497369445"><ele></ele><time>2016-8-29T0:26:15Z</time></trkpt>
<trkpt lat="46.71560164860622" lon="7.093678310399319"><ele></ele><time>2016-8-29T0:26:18Z</time></trkpt>
<trkpt lat="46.71504361704831" lon="7.091972401998668"><ele></ele><time>2016-8-29T0:26:21Z</time></trkpt>
<trkpt lat="46.715187293447954" lon="7.091527078410336"><ele></ele><time>2016-8-29T0:26:24Z</time></trkpt>
<trkpt lat="46.71508480731935" lon="7.09040742026896"><ele></ele><time>2016-8-29T0:26:27Z</time></trkpt>
<trkpt lat="46.7151660508133" lon="7.0894010936447645"><ele></ele><time>2016-8-29T0:26:30Z</time></trkpt>
<trkpt lat="46.715117532097075" lon="7.088832296067178"><ele></ele><time>2016-8-29T0:26:33Z</time></trkpt>
<trkpt lat="46.715181498511896" lon="7.088286553786866"><ele></ele><time>2016-8-29T0:26:36Z</time></trkpt>
<trkpt lat="46.71540513802069" lon="7.087869396999254"><ele></ele><time>2016-8-29T0:26:39Z</time></trkpt>
<trkpt lat="46.71542199442909" lon="7.087480394025206"><ele></ele><time>2016-8-29T0:26:42Z</time></trkpt>
<trkpt lat="46.71530247994128" lon="7.086945204633178"><ele></ele><time>2016-8-29T0:26:45Z</time></trkpt>
<trkpt lat="46.715623125136155" lon="7.085340170126261"><ele></ele><time>2016-8-29T0:26:48Z</time></trkpt>
<trkpt lat="46.715101507996515" lon="7.0857407172447875"><ele></ele><time>2016-8-29T0:26:51Z</time></trkpt>
<trkpt lat="46.714134054930106" lon="7.08616471348924"><ele></ele><time>2016-8-29T0:26:54Z</time></trkpt>
<trkpt lat="46.71348059592221" lon="7.086296028192788"><ele></ele><time>2016-8-29T0:26:57Z</time></trkpt>
<trkpt lat="46.71310182064837" lon="7.0860905707856725"><ele></ele><time>2016-8-29T0:27:0Z</time></trkpt>
<trkpt lat="46.713045492699244" lon="7.086149073863969"><ele></ele><time>2016-8-29T0:27:3Z</time></trkpt>
<trkpt lat="46.71308161600438" lon="7.0862765641278065"><ele></ele><time>2016-8-29T0:27:6Z</time></trkpt>
<trkpt lat="46.71366657845951" lon="7.086863658557133"><ele></ele><time>2016-8-29T0:27:9Z</time></trkpt>
<trkpt lat="46.71375642658915" lon="7.087143617923089"><ele></ele><time>2016-8-29T0:27:12Z</time></trkpt>
<trkpt lat="46.713302455234285" lon="7.087387929622645"><ele></ele><time>2016-8-29T0:27:15Z</time></trkpt>
<trkpt lat="46.71275361167275" lon="7.0871253000021435"><ele></ele><time>2016-8-29T0:27:18Z</time></trkpt>
<trkpt lat="46.712656463860554" lon="7.087175586977622"><ele></ele><time>2016-8-29T0:27:21Z</time></trkpt>
<trkpt lat="46.71261476426208" lon="7.089023541575934"><ele></ele><time>2016-8-29T0:27:24Z</time></trkpt>
<trkpt lat="46.71268373360882" lon="7.089650594289926"><ele></ele><time>2016-8-29T0:27:27Z</time></trkpt>
<trkpt lat="46.71293593559372" lon="7.090124601869717"><ele></ele><time>2016-8-29T0:27:30Z</time></trkpt>
<trkpt lat="46.71287524611604" lon="7.090313946144263"><ele></ele><time>2016-8-29T0:27:33Z</time></trkpt>
<trkpt lat="46.71258581813349" lon="7.0902955767188915"><ele></ele><time>2016-8-29T0:27:36Z</time></trkpt>
<trkpt lat="46.71231684504932" lon="7.090144606630539"><ele></ele><time>2016-8-29T0:27:39Z</time></trkpt>
<trkpt lat="46.711216910864096" lon="7.088901186522772"><ele></ele><time>2016-8-29T0:27:42Z</time></trkpt>
<trkpt lat="46.710992215402456" lon="7.0878131224694165"><ele></ele><time>2016-8-29T0:27:45Z</time></trkpt>
<trkpt lat="46.710794831723916" lon="7.087321599166873"><ele></ele><time>2016-8-29T0:27:48Z</time></trkpt>
<trkpt lat="46.71072921186382" lon="7.086842570848437"><ele></ele><time>2016-8-29T0:27:51Z</time></trkpt>
<trkpt lat="46.71047676464682" lon="7.0860923797354625"><ele></ele><time>2016-8-29T0:27:54Z</time></trkpt>
<trkpt lat="46.710675834827875" lon="7.086132035118392"><ele></ele><time>2016-8-29T0:27:57Z</time></trkpt>
<trkpt lat="46.710796613527435" lon="7.086357513586506"><ele></ele><time>2016-8-29T0:28:0Z</time></trkpt>
<trkpt lat="46.71106902648742" lon="7.086361297774658"><ele></ele><time>2016-8-29T0:28:3Z</time></trkpt>
<trkpt lat="46.71169038681349" lon="7.086043568246603"><ele></ele><time>2016-8-29T0:28:6Z</time></trkpt>
<trkpt lat="46.71125178728206" lon="7.084822306172071"><ele></ele><time>2016-8-29T0:28:9Z</time></trkpt>
<trkpt lat="46.71148950903281" lon="7.084379501397084"><ele></ele><time>2016-8-29T0:28:12Z</time></trkpt>
<trkpt lat="46.71238006871307" lon="7.0816026197976045"><ele></ele><time>2016-8-29T0:28:15Z</time></trkpt>
<trkpt lat="46.71293355401336" lon="7.080455834010858"><ele></ele><time>2016-8-29T0:28:18Z</time></trkpt>
<trkpt lat="46.712986452676745" lon="7.08007278379762"><ele></ele><time>2016-8-29T0:28:21Z</time></trkpt>
<trkpt lat="46.711864021035254" lon="7.08034154016826"><ele></ele><time>2016-8-29T0:28:24Z</time></trkpt>
<trkpt lat="46.71149495660385" lon="7.080679984343054"><ele></ele><time>2016-8-29T0:28:27Z</time></trkpt>
<trkpt lat="46.7111378647799" lon="7.081621841745525"><ele></ele><time>2016-8-29T0:28:30Z</time></trkpt>
<trkpt lat="46.711076332659886" lon="7.082007992890172"><ele></ele><time>2016-8-29T0:28:33Z</time></trkpt>
<trkpt lat="46.71063182122825" lon="7.082771731062504"><ele></ele><time>2016-8-29T0:28:36Z</time></trkpt>
<trkpt lat="46.71052696275694" lon="7.082789747380299"><ele></ele><time>2016-8-29T0:28:39Z</time></trkpt>
<trkpt lat="46.71009798635477" lon="7.082288071437448"><ele></ele><time>2016-8-29T0:28:42Z</time></trkpt>
<trkpt lat="46.709491479132225" lon="7.081846317979507"><ele></ele><time>2016-8-29T0:28:45Z</time></trkpt>
<trkpt lat="46.70897257199608" lon="7.081012966291609"><ele></ele><time>2016-8-29T0:28:48Z</time></trkpt>
<trkpt lat="46.70809773212851" lon="7.081762100458379"><ele></ele><time>2016-8-29T0:28:51Z</time></trkpt>
<trkpt lat="46.707912657501815" lon="7.0818246210031734"><ele></ele><time>2016-8-29T0:28:54Z</time></trkpt>
<trkpt lat="46.706279110374496" lon="7.081424143622042"><ele></ele><time>2016-8-29T0:28:57Z</time></trkpt>
<trkpt lat="46.70472072869932" lon="7.081939308078237"><ele></ele><time>2016-8-29T0:29:0Z</time></trkpt>
<trkpt lat="46.70455795085589" lon="7.08196561984623"><ele></ele><time>2016-8-29T0:29:3Z</time></trkpt>
<trkpt lat="46.70444714412402" lon="7.081854470857595"><ele></ele><time>2016-8-29T0:29:6Z</time></trkpt>
<trkpt lat="46.70415347281148" lon="7.080439928521711"><ele></ele><time>2016-8-29T0:29:9Z</time></trkpt>
<trkpt lat="46.70417686394112" lon="7.080194675267062"><ele></ele><time>2016-8-29T0:29:12Z</time></trkpt>
<trkpt lat="46.70456815562742" lon="7.07918291422671"><ele></ele><time>2016-8-29T0:29:15Z</time></trkpt>
<trkpt lat="46.70459892642473" lon="7.078779830185439"><ele></ele><time>2016-8-29T0:29:18Z</time></trkpt>
<trkpt lat="46.7050264228737" lon="7.078000417010202"><ele></ele><time>2016-8-29T0:29:21Z</time></trkpt>
<trkpt lat="46.705038366157595" lon="7.076186239727336"><ele></ele><time>2016-8-29T0:29:24Z</time></trkpt>
<trkpt lat="46.70518674308496" lon="7.075450735011997"><ele></ele><time>2016-8-29T0:29:27Z</time></trkpt>
<trkpt lat="46.70546545891378" lon="7.074726635625772"><ele></ele><time>2016-8-29T0:29:30Z</time></trkpt>
<trkpt lat="46.70530257677764" lon="7.07195255552823"><ele></ele><time>2016-8-29T0:29:33Z</time></trkpt>
<trkpt lat="46.705410296192895" lon="7.071444785122111"><ele></ele><time>2016-8-29T0:29:36Z</time></trkpt>
<trkpt lat="46.70628147329282" lon="7.0695838761756224"><ele></ele><time>2016-8-29T0:29:39Z</time></trkpt>
<trkpt lat="46.706453651514266" lon="7.069002348047274"><ele></ele><time>2016-8-29T0:29:42Z</time></trkpt>
<trkpt lat="46.706412509293656" lon="7.0684251687469875"><ele></ele><time>2016-8-29T0:29:45Z</time></trkpt>
<trkpt lat="46.70625024735151" lon="7.06787916455625"><ele></ele><time>2016-8-29T0:29:48Z</time></trkpt>
<trkpt lat="46.70611143848053" lon="7.068053585475933"><ele></ele><time>2016-8-29T0:29:51Z</time></trkpt>
<trkpt lat="46.7056204307175" lon="7.067779642602084"><ele></ele><time>2016-8-29T0:29:54Z</time></trkpt>
<trkpt lat="46.70481743575238" lon="7.068009605095112"><ele></ele><time>2016-8-29T0:29:57Z</time></trkpt>
<trkpt lat="46.70450185655187" lon="7.067974638136036"><ele></ele><time>2016-8-29T0:30:0Z</time></trkpt>
<trkpt lat="46.70365405002525" lon="7.066805156984254"><ele></ele><time>2016-8-29T0:30:3Z</time></trkpt>
<trkpt lat="46.702584435924514" lon="7.066581981865205"><ele></ele><time>2016-8-29T0:30:6Z</time></trkpt>
<trkpt lat="46.70222435512349" lon="7.0662621121462506"><ele></ele><time>2016-8-29T0:30:9Z</time></trkpt>
<trkpt lat="46.701715347142645" lon="7.065069344743627"><ele></ele><time>2016-8-29T0:30:12Z</time></trkpt>
<trkpt lat="46.70238972626631" lon="7.062778183910787"><ele></ele><time>2016-8-29T0:30:15Z</time></trkpt>
<trkpt lat="46.70242209572645" lon="7.062112495076039"><ele></ele><time>2016-8-29T0:30:18Z</time></trkpt>
<trkpt lat="46.70234901231848" lon="7.06180143949157"><ele></ele><time>2016-8-29T0:30:21Z</time></trkpt>
<trkpt lat="46.70144751654361" lon="7.062604383897601"><ele></ele><time>2016-8-29T0:30:24Z</time></trkpt>
<trkpt lat="46.70052658225043" lon="7.063075907196591"><ele></ele><time>2016-8-29T0:30:27Z</time></trkpt>
<trkpt lat="46.6997177048023" lon="7.063972565550124"><ele></ele><time>2016-8-29T0:30:30Z</time></trkpt>
<trkpt lat="46.698421315946206" lon="7.065657183882793"><ele></ele><time>2016-8-29T0:30:33Z</time></trkpt>
<trkpt lat="46.69824101640427" lon="7.065835710061126"><ele></ele><time>2016-8-29T0:30:36Z</time></trkpt>
<trkpt lat="46.69776383060098" lon="7.065927637620036"><ele></ele><time>2016-8-29T0:30:39Z</time></trkpt>
<trkpt lat="46.69761192117593" lon="7.067190615181954"><ele></ele><time>2016-8-29T0:30:42Z</time></trkpt>
<trkpt lat="46.69732666738014" lon="7.067915049644819"><ele></ele><time>2016-8-29T0:30:45Z</time></trkpt>
<trkpt lat="46.69698350290173" lon="7.068265313496555"><ele></ele><time>2016-8-29T0:30:48Z</time></trkpt>
<trkpt lat="46.696909485580086" lon="7.068477288336016"><ele></ele><time>2016-8-29T0:30:51Z</time></trkpt>
<trkpt lat="46.696750711235566" lon="7.0693781675843645"><ele></ele><time>2016-8-29T0:30:54Z</time></trkpt>
<trkpt lat="46.696749864259964" lon="7.069765243645567"><ele></ele><time>2016-8-29T0:30:57Z</time></trkpt>
<trkpt lat="46.69624830973945" lon="7.06885670665717"><ele></ele><time>2016-8-29T0:31:0Z</time></trkpt>
<trkpt lat="46.69557769280372" lon="7.0678935119215005"><ele></ele><time>2016-8-29T0:31:3Z</time></trkpt>
<trkpt lat="46.69504728861352" lon="7.067682263775011"><ele></ele><time>2016-8-29T0:31:6Z</time></trkpt>
<trkpt lat="46.69383994758076" lon="7.067982112875196"><ele></ele><time>2016-8-29T0:31:9Z</time></trkpt>
<trkpt lat="46.69302017440292" lon="7.068851613653127"><ele></ele><time>2016-8-29T0:31:12Z</time></trkpt>
<trkpt lat="46.69242847024067" lon="7.069875770955569"><ele></ele><time>2016-8-29T0:31:15Z</time></trkpt>
<trkpt lat="46.69214557416952" lon="7.070127298845389"><ele></ele><time>2016-8-29T0:31:18Z</time></trkpt>
<trkpt lat="46.690912752915295" lon="7.070392445820919"><ele></ele><time>2016-8-29T0:31:21Z</time></trkpt>
<trkpt lat="46.690357372404186" lon="7.070101400850306"><ele></ele><time>2016-8-29T0:31:24Z</time></trkpt>
<trkpt lat="46.68994482419445" lon="7.069629732442001"><ele></ele><time>2016-8-29T0:31:27Z</time></trkpt>
<trkpt lat="46.69012488946164" lon="7.06869247654845"><ele></ele><time>2016-8-29T0:31:30Z</time></trkpt>
<trkpt lat="46.68994179942709" lon="7.0662601244209435"><ele></ele><time>2016-8-29T0:31:33Z</time></trkpt>
<trkpt lat="46.68995807589637" lon="7.065578257548974"><ele></ele><time>2016-8-29T0:31:36Z</time></trkpt>
<trkpt lat="46.69005482292026" lon="7.064722553748745"><ele></ele><time>2016-8-29T0:31:39Z</time></trkpt>
<trkpt lat="46.69045920567175" lon="7.06304853912004"><ele></ele><time>2016-8-29T0:31:42Z</time></trkpt>
<trkpt lat="46.690432906946704" lon="7.062147148329633"><ele></ele><time>2016-8-29T0:31:45Z</time></trkpt>
<trkpt lat="46.69033351225889" lon="7.061486314724835"><ele></ele><time>2016-8-29T0:31:48Z</time></trkpt>
<trkpt lat="46.689814867230794" lon="7.060207715765865"><ele></ele><time>2016-8-29T0:31:51Z</time></trkpt>
<trkpt lat="46.68954950580051" lon="7.059740580236121"><ele></ele><time>2016-8-29T0:31:54Z</time></trkpt>
<trkpt lat="46.68916544653801" lon="7.059694378297559"><ele></ele><time>2016-8-29T0:31:57Z</time></trkpt>
<trkpt lat="46.68854737205351" lon="7.059279278132763"><ele></ele><time>2016-8-29T0:32:0Z</time></trkpt>
<trkpt lat="46.68841292586013" lon="7.059276589738868"><ele></ele><time>2016-8-29T0:32:3Z</time></trkpt>
<trkpt lat="46.68782651382521" lon="7.059792468773556"><ele></ele><time>2016-8-29T0:32:6Z</time></trkpt>
<trkpt lat="46.68765258944131" lon="7.059758011160408"><ele></ele><time>2016-8-29T0:32:9Z</time></trkpt>
<trkpt lat="46.687472718233785" lon="7.05953320029705"><ele></ele><time>2016-8-29T0:32:12Z</time></trkpt>
<trkpt lat="46.687529721950405" lon="7.059246541898489"><ele></ele><time>2016-8-29T0:32:15Z</time></trkpt>
<trkpt lat="46.68783173308303" lon="7.058810026383112"><ele></ele><time>2016-8-29T0:32:18Z</time></trkpt>
<trkpt lat="46.68806109200581" lon="7.057535652700162"><ele></ele><time>2016-8-29T0:32:21Z</time></trkpt>
<trkpt lat="46.68824366122681" lon="7.0570702141446935"><ele></ele><time>2016-8-29T0:32:24Z</time></trkpt>
<trkpt lat="46.68868666122581" lon="7.056429270589663"><ele></ele><time>2016-8-29T0:32:27Z</time></trkpt>
<trkpt lat="46.68943274849865" lon="7.055943238549698"><ele></ele><time>2016-8-29T0:32:30Z</time></trkpt>
<trkpt lat="46.689542470463806" lon="7.055837631658772"><ele></ele><time>2016-8-29T0:32:33Z</time></trkpt>
<trkpt lat="46.689552364185246" lon="7.05570511426454"><ele></ele><time>2016-8-29T0:32:36Z</time></trkpt>
<trkpt lat="46.689354389060355" lon="7.055434202103975"><ele></ele><time>2016-8-29T0:32:39Z</time></trkpt>
<trkpt lat="46.68876664766624" lon="7.05543551610533"><ele></ele><time>2016-8-29T0:32:42Z</time></trkpt>
<trkpt lat="46.688364900432695" lon="7.055480759844844"><ele></ele><time>2016-8-29T0:32:45Z</time></trkpt>
<trkpt lat="46.687817633157145" lon="7.055946516854473"><ele></ele><time>2016-8-29T0:32:48Z</time></trkpt>
<trkpt lat="46.68756031130993" lon="7.055790014897321"><ele></ele><time>2016-8-29T0:32:51Z</time></trkpt>
<trkpt lat="46.687413047291" lon="7.05550225743952"><ele></ele><time>2016-8-29T0:32:54Z</time></trkpt>
<trkpt lat="46.68736720623515" lon="7.055147449447178"><ele></ele><time>2016-8-29T0:32:57Z</time></trkpt>
<trkpt lat="46.68745346834499" lon="7.054624590428911"><ele></ele><time>2016-8-29T0:33:0Z</time></trkpt>
<trkpt lat="46.68738265649067" lon="7.0539487544672665"><ele></ele><time>2016-8-29T0:33:3Z</time></trkpt>
<trkpt lat="46.686764190447384" lon="7.052337137750375"><ele></ele><time>2016-8-29T0:33:6Z</time></trkpt>
<trkpt lat="46.68606808681575" lon="7.051635205160369"><ele></ele><time>2016-8-29T0:33:9Z</time></trkpt>
<trkpt lat="46.68498773889781" lon="7.0516458002467095"><ele></ele><time>2016-8-29T0:33:12Z</time></trkpt>
<trkpt lat="46.684697575273105" lon="7.050820253326605"><ele></ele><time>2016-8-29T0:33:15Z</time></trkpt>
<trkpt lat="46.68428469399871" lon="7.05026107755951"><ele></ele><time>2016-8-29T0:33:18Z</time></trkpt>
<trkpt lat="46.68357584918502" lon="7.049589570598702"><ele></ele><time>2016-8-29T0:33:21Z</time></trkpt>
<trkpt lat="46.68277303575922" lon="7.049228022007921"><ele></ele><time>2016-8-29T0:33:24Z</time></trkpt>
<trkpt lat="46.68244933210773" lon="7.048937909387322"><ele></ele><time>2016-8-29T0:33:27Z</time></trkpt>
<trkpt lat="46.6823703773724" lon="7.048803627657098"><ele></ele><time>2016-8-29T0:33:30Z</time></trkpt>
<trkpt lat="46.68235882069768" lon="7.04835234549976"><ele></ele><time>2016-8-29T0:33:33Z</time></trkpt>
<trkpt lat="46.682523044278156" lon="7.047420620843487"><ele></ele><time>2016-8-29T0:33:36Z</time></trkpt>
<trkpt lat="46.68264743942207" lon="7.047107143461487"><ele></ele><time>2016-8-29T0:33:39Z</time></trkpt>
<trkpt lat="46.68281089124197" lon="7.046929957622193"><ele></ele><time>2016-8-29T0:33:42Z</time></trkpt>
<trkpt lat="46.6828704967474" lon="7.046498711515053"><ele></ele><time>2016-8-29T0:33:45Z</time></trkpt>
<trkpt lat="46.682465995624284" lon="7.046019247952139"><ele></ele><time>2016-8-29T0:33:48Z</time></trkpt>
<trkpt lat="46.682161492031426" lon="7.045494778200935"><ele></ele><time>2016-8-29T0:33:51Z</time></trkpt>
<trkpt lat="46.681910290834736" lon="7.0452611629287984"><ele></ele><time>2016-8-29T0:33:54Z</time></trkpt>
<trkpt lat="46.68053314462238" lon="7.045015341657237"><ele></ele><time>2016-8-29T0:33:57Z</time></trkpt>
<trkpt lat="46.68003912578598" lon="7.044478876954262"><ele></ele><time>2016-8-29T0:34:0Z</time></trkpt>
<trkpt lat="46.679989089467114" lon="7.044313080593266"><ele></ele><time>2016-8-29T0:34:3Z</time></trkpt>
<trkpt lat="46.68007044081673" lon="7.042298410199351"><ele></ele><time>2016-8-29T0:34:6Z</time></trkpt>
<trkpt lat="46.68018923132988" lon="7.0414991174663335"><ele></ele><time>2016-8-29T0:34:9Z</time></trkpt>
<trkpt lat="46.68012865168781" lon="7.040560173894777"><ele></ele><time>2016-8-29T0:34:12Z</time></trkpt>
<trkpt lat="46.68022932300435" lon="7.040375357620667"><ele></ele><time>2016-8-29T0:34:15Z</time></trkpt>
<trkpt lat="46.68112737483946" lon="7.039885477191665"><ele></ele><time>2016-8-29T0:34:18Z</time></trkpt>
<trkpt lat="46.681278170734124" lon="7.039674595540292"><ele></ele><time>2016-8-29T0:34:21Z</time></trkpt>
<trkpt lat="46.68140290513272" lon="7.03919113320717"><ele></ele><time>2016-8-29T0:34:24Z</time></trkpt>
<trkpt lat="46.68105083159137" lon="7.036970247901131"><ele></ele><time>2016-8-29T0:34:27Z</time></trkpt>
<trkpt lat="46.681358967239674" lon="7.036293255996543"><ele></ele><time>2016-8-29T0:34:30Z</time></trkpt>
<trkpt lat="46.68136568266105" lon="7.035868377670301"><ele></ele><time>2016-8-29T0:34:33Z</time></trkpt>
<trkpt lat="46.68100543967346" lon="7.035327728148797"><ele></ele><time>2016-8-29T0:34:36Z</time></trkpt>
<trkpt lat="46.68024999236403" lon="7.034619925030235"><ele></ele><time>2016-8-29T0:34:39Z</time></trkpt>
<trkpt lat="46.68010041143556" lon="7.0330473054424765"><ele></ele><time>2016-8-29T0:34:42Z</time></trkpt>
<trkpt lat="46.67994745506664" lon="7.032448998071428"><ele></ele><time>2016-8-29T0:34:45Z</time></trkpt>
<trkpt lat="46.679549336812336" lon="7.031434936848439"><ele></ele><time>2016-8-29T0:34:48Z</time></trkpt>
<trkpt lat="46.67942515339545" lon="7.029855193791325"><ele></ele><time>2016-8-29T0:34:51Z</time></trkpt>
<trkpt lat="46.67931326482207" lon="7.029416060657329"><ele></ele><time>2016-8-29T0:34:54Z</time></trkpt>
<trkpt lat="46.678270688555045" lon="7.027167398672707"><ele></ele><time>2016-8-29T0:34:57Z</time></trkpt>
<trkpt lat="46.67801405378185" lon="7.026310169395651"><ele></ele><time>2016-8-29T0:35:0Z</time></trkpt>
<trkpt lat="46.677404037004926" lon="7.02543909338413"><ele></ele><time>2016-8-29T0:35:3Z</time></trkpt>
<trkpt lat="46.6767274756782" lon="7.024227206022108"><ele></ele><time>2016-8-29T0:35:6Z</time></trkpt>
<trkpt lat="46.676218203861815" lon="7.023609100532356"><ele></ele><time>2016-8-29T0:35:9Z</time></trkpt>
<trkpt lat="46.67592995132525" lon="7.023516634593897"><ele></ele><time>2016-8-29T0:35:12Z</time></trkpt>
<trkpt lat="46.67544647773339" lon="7.023672431474122"><ele></ele><time>2016-8-29T0:35:15Z</time></trkpt>
<trkpt lat="46.67521882819313" lon="7.023511236769253"><ele></ele><time>2016-8-29T0:35:18Z</time></trkpt>
<trkpt lat="46.67484249230416" lon="7.022959773628402"><ele></ele><time>2016-8-29T0:35:21Z</time></trkpt>
<trkpt lat="46.67375160617577" lon="7.021999994334156"><ele></ele><time>2016-8-29T0:35:24Z</time></trkpt>
<trkpt lat="46.673553299388914" lon="7.021584326378526"><ele></ele><time>2016-8-29T0:35:27Z</time></trkpt>
<trkpt lat="46.673427917650265" lon="7.0210739463306"><ele></ele><time>2016-8-29T0:35:30Z</time></trkpt>
<trkpt lat="46.673294892742206" lon="7.02122833475011"><ele></ele><time>2016-8-29T0:35:33Z</time></trkpt>
<trkpt lat="46.673304599990395" lon="7.021901066846275"><ele></ele><time>2016-8-29T0:35:36Z</time></trkpt>
<trkpt lat="46.67356390896828" lon="7.0230961709470865"><ele></ele><time>2016-8-29T0:35:39Z</time></trkpt>
<trkpt lat="46.6733408690674" lon="7.022953500455694"><ele></ele><time>2016-8-29T0:35:42Z</time></trkpt>
<trkpt lat="46.67301950612728" lon="7.022937140640807"><ele></ele><time>2016-8-29T0:35:45Z</time></trkpt>
<trkpt lat="46.67192741623838" lon="7.023270186211082"><ele></ele><time>2016-8-29T0:35:48Z</time></trkpt>
<trkpt lat="46.671389966836024" lon="7.023263958350608"><ele></ele><time>2016-8-29T0:35:51Z</time></trkpt>
<trkpt lat="46.67062410416612" lon="7.023496604048587"><ele></ele><time>2016-8-29T0:35:54Z</time></trkpt>
<trkpt lat="46.66996858528543" lon="7.022128897804713"><ele></ele><time>2016-8-29T0:35:57Z</time></trkpt>
<trkpt lat="46.66898587868672" lon="7.018936686797949"><ele></ele><time>2016-8-29T0:36:0Z</time></trkpt>
<trkpt lat="46.668187788408915" lon="7.017350373602158"><ele></ele><time>2016-8-29T0:36:3Z</time></trkpt>
<trkpt lat="46.66724451308654" lon="7.016189686657748"><ele></ele><time>2016-8-29T0:36:6Z</time></trkpt>
<trkpt lat="46.666939171000344" lon="7.015693128158791"><ele></ele><time>2016-8-29T0:36:9Z</time></trkpt>
<trkpt lat="46.66621796382865" lon="7.013231412191101"><ele></ele><time>2016-8-29T0:36:12Z</time></trkpt>
<trkpt lat="46.664630444364064" lon="7.008907949950197"><ele></ele><time>2016-8-29T0:36:15Z</time></trkpt>
<trkpt lat="46.664191499931654" lon="7.008176440194653"><ele></ele><time>2016-8-29T0:36:18Z</time></trkpt>
<trkpt lat="46.663464879832254" lon="7.007773403697438"><ele></ele><time>2016-8-29T0:36:21Z</time></trkpt>
<trkpt lat="46.66305519543015" lon="7.006744086154139"><ele></ele><time>2016-8-29T0:36:24Z</time></trkpt>
<trkpt lat="46.66237997822975" lon="7.005429771160226"><ele></ele><time>2016-8-29T0:36:27Z</time></trkpt>
<trkpt lat="46.66192396466415" lon="7.003438459921396"><ele></ele><time>2016-8-29T0:36:30Z</time></trkpt>
<trkpt lat="46.66155032259575" lon="7.002411574757539"><ele></ele><time>2016-8-29T0:36:33Z</time></trkpt>
<trkpt lat="46.66111539871329" lon="7.001801267433748"><ele></ele><time>2016-8-29T0:36:36Z</time></trkpt>
<trkpt lat="46.66102042787247" lon="7.001950879956159"><ele></ele><time>2016-8-29T0:36:39Z</time></trkpt>
<trkpt lat="46.66045203003966" lon="7.006280527042699"><ele></ele><time>2016-8-29T0:36:42Z</time></trkpt>
<trkpt lat="46.66022343274682" lon="7.007209231512972"><ele></ele><time>2016-8-29T0:36:45Z</time></trkpt>
<trkpt lat="46.659740515424" lon="7.008655255260822"><ele></ele><time>2016-8-29T0:36:48Z</time></trkpt>
<trkpt lat="46.659825484144" lon="7.009670978811134"><ele></ele><time>2016-8-29T0:36:51Z</time></trkpt>
<trkpt lat="46.65973461918037" lon="7.009875073951497"><ele></ele><time>2016-8-29T0:36:54Z</time></trkpt>
<trkpt lat="46.65934552235329" lon="7.010195914944496"><ele></ele><time>2016-8-29T0:36:57Z</time></trkpt>
<trkpt lat="46.65810885238797" lon="7.010191833087814"><ele></ele><time>2016-8-29T0:37:0Z</time></trkpt>
<trkpt lat="46.65793735196318" lon="7.010450574460528"><ele></ele><time>2016-8-29T0:37:3Z</time></trkpt>
<trkpt lat="46.65800078116474" lon="7.011380969218019"><ele></ele><time>2016-8-29T0:37:6Z</time></trkpt>
<trkpt lat="46.657956770286155" lon="7.011623791002666"><ele></ele><time>2016-8-29T0:37:9Z</time></trkpt>
<trkpt lat="46.65593954954494" lon="7.012696579835217"><ele></ele><time>2016-8-29T0:37:12Z</time></trkpt>
<trkpt lat="46.65498182141347" lon="7.013068523656618"><ele></ele><time>2016-8-29T0:37:15Z</time></trkpt>
<trkpt lat="46.655212971803735" lon="7.014052570621689"><ele></ele><time>2016-8-29T0:37:18Z</time></trkpt>
<trkpt lat="46.652928025365675" lon="7.0154226533345"><ele></ele><time>2016-8-29T0:37:21Z</time></trkpt>
<trkpt lat="46.65292743552632" lon="7.015554249276094"><ele></ele><time>2016-8-29T0:37:24Z</time></trkpt>
<trkpt lat="46.65299775912798" lon="7.015587696411447"><ele></ele><time>2016-8-29T0:37:27Z</time></trkpt>
<trkpt lat="46.65276603667244" lon="7.01753564110947"><ele></ele><time>2016-8-29T0:37:30Z</time></trkpt>
<trkpt lat="46.65127254888421" lon="7.017347732115599"><ele></ele><time>2016-8-29T0:37:33Z</time></trkpt>
<trkpt lat="46.65078336709005" lon="7.0178738415033095"><ele></ele><time>2016-8-29T0:37:36Z</time></trkpt>
<trkpt lat="46.65083526360111" lon="7.0173488011465315"><ele></ele><time>2016-8-29T0:37:39Z</time></trkpt>
<trkpt lat="46.65072271688959" lon="7.016389905405959"><ele></ele><time>2016-8-29T0:37:42Z</time></trkpt>
<trkpt lat="46.649721692601936" lon="7.015138187621096"><ele></ele><time>2016-8-29T0:37:45Z</time></trkpt>
<trkpt lat="46.649255833497605" lon="7.014777324415438"><ele></ele><time>2016-8-29T0:37:48Z</time></trkpt>
<trkpt lat="46.64896741292556" lon="7.014709249689185"><ele></ele><time>2016-8-29T0:37:51Z</time></trkpt>
<trkpt lat="46.64865166564847" lon="7.014709737693888"><ele></ele><time>2016-8-29T0:37:54Z</time></trkpt>
<trkpt lat="46.6483726275224" lon="7.014866969147247"><ele></ele><time>2016-8-29T0:37:57Z</time></trkpt>
<trkpt lat="46.64630416968914" lon="7.016956146461666"><ele></ele><time>2016-8-29T0:38:0Z</time></trkpt>
<trkpt lat="46.64603482597723" lon="7.01832917451086"><ele></ele><time>2016-8-29T0:38:3Z</time></trkpt>
<trkpt lat="46.64573382515816" lon="7.018574079751905"><ele></ele><time>2016-8-29T0:38:6Z</time></trkpt>
<trkpt lat="46.6459573610171" lon="7.01900626158908"><ele></ele><time>2016-8-29T0:38:9Z</time></trkpt>
<trkpt lat="46.64632104363505" lon="7.019399809414373"><ele></ele><time>2016-8-29T0:38:12Z</time></trkpt>
<trkpt lat="46.64696566886255" lon="7.020628711637084"><ele></ele><time>2016-8-29T0:38:15Z</time></trkpt>
<trkpt lat="46.64713102536396" lon="7.021435059183536"><ele></ele><time>2016-8-29T0:38:18Z</time></trkpt>
<trkpt lat="46.647370232039414" lon="7.022012751685704"><ele></ele><time>2016-8-29T0:38:21Z</time></trkpt>
<trkpt lat="46.64758399935828" lon="7.024385512862049"><ele></ele><time>2016-8-29T0:38:24Z</time></trkpt>
<trkpt lat="46.64750486156391" lon="7.024913820944024"><ele></ele><time>2016-8-29T0:38:27Z</time></trkpt>
<trkpt lat="46.647556144111945" lon="7.025547747217415"><ele></ele><time>2016-8-29T0:38:30Z</time></trkpt>
<trkpt lat="46.64813746760683" lon="7.027559097631956"><ele></ele><time>2016-8-29T0:38:33Z</time></trkpt>
<trkpt lat="46.64826738461704" lon="7.0276825692562275"><ele></ele><time>2016-8-29T0:38:36Z</time></trkpt>
<trkpt lat="46.64858009263234" lon="7.028612808279513"><ele></ele><time>2016-8-29T0:38:39Z</time></trkpt>
<trkpt lat="46.648871855425284" lon="7.029132919455816"><ele></ele><time>2016-8-29T0:38:42Z</time></trkpt>
<trkpt lat="46.64899454064895" lon="7.030255179113714"><ele></ele><time>2016-8-29T0:38:45Z</time></trkpt>
<trkpt lat="46.64885144562169" lon="7.030918935862592"><ele></ele><time>2016-8-29T0:38:48Z</time></trkpt>
<trkpt lat="46.648649609649986" lon="7.030881207825543"><ele></ele><time>2016-8-29T0:38:51Z</time></trkpt>
<trkpt lat="46.648394811937166" lon="7.030327403110799"><ele></ele><time>2016-8-29T0:38:54Z</time></trkpt>
<trkpt lat="46.64748552400007" lon="7.027438451385242"><ele></ele><time>2016-8-29T0:38:57Z</time></trkpt>
<trkpt lat="46.646898400272946" lon="7.026140568867405"><ele></ele><time>2016-8-29T0:39:0Z</time></trkpt>
<trkpt lat="46.646615614433735" lon="7.025268334006581"><ele></ele><time>2016-8-29T0:39:3Z</time></trkpt>
<trkpt lat="46.64648772447402" lon="7.024488894155111"><ele></ele><time>2016-8-29T0:39:6Z</time></trkpt>
<trkpt lat="46.64597175890989" lon="7.023382206280785"><ele></ele><time>2016-8-29T0:39:9Z</time></trkpt>
<trkpt lat="46.64578234252552" lon="7.022734610971029"><ele></ele><time>2016-8-29T0:39:12Z</time></trkpt>
<trkpt lat="46.64362927514951" lon="7.019230619495701"><ele></ele><time>2016-8-29T0:39:15Z</time></trkpt>
<trkpt lat="46.643604218546805" lon="7.019002797973967"><ele></ele><time>2016-8-29T0:39:18Z</time></trkpt>
<trkpt lat="46.6437069106325" lon="7.018430821205463"><ele></ele><time>2016-8-29T0:39:21Z</time></trkpt>
<trkpt lat="46.643247882948856" lon="7.016287209632879"><ele></ele><time>2016-8-29T0:39:24Z</time></trkpt>
<trkpt lat="46.6432108556841" lon="7.015403083904759"><ele></ele><time>2016-8-29T0:39:27Z</time></trkpt>
<trkpt lat="46.642947095198856" lon="7.014607125172073"><ele></ele><time>2016-8-29T0:39:30Z</time></trkpt>
<trkpt lat="46.64294777379288" lon="7.01426665197393"><ele></ele><time>2016-8-29T0:39:33Z</time></trkpt>
<trkpt lat="46.64308691994761" lon="7.014006232568956"><ele></ele><time>2016-8-29T0:39:36Z</time></trkpt>
<trkpt lat="46.64306010158361" lon="7.013845130970553"><ele></ele><time>2016-8-29T0:39:39Z</time></trkpt>
<trkpt lat="46.642833380841935" lon="7.013404567008218"><ele></ele><time>2016-8-29T0:39:42Z</time></trkpt>
<trkpt lat="46.64245242662744" lon="7.013218051479107"><ele></ele><time>2016-8-29T0:39:45Z</time></trkpt>
<trkpt lat="46.641450278948525" lon="7.013404082545874"><ele></ele><time>2016-8-29T0:39:48Z</time></trkpt>
<trkpt lat="46.64146894923987" lon="7.014310251876464"><ele></ele><time>2016-8-29T0:39:51Z</time></trkpt>
<trkpt lat="46.64136390858777" lon="7.014949702942404"><ele></ele><time>2016-8-29T0:39:54Z</time></trkpt>
<trkpt lat="46.64185312380765" lon="7.01655611936098"><ele></ele><time>2016-8-29T0:39:57Z</time></trkpt>
<trkpt lat="46.64188697805699" lon="7.016926769079777"><ele></ele><time>2016-8-29T0:40:0Z</time></trkpt>
<trkpt lat="46.64313932523581" lon="7.020345055321713"><ele></ele><time>2016-8-29T0:40:3Z</time></trkpt>
<trkpt lat="46.6432178534179" lon="7.020790892870604"><ele></ele><time>2016-8-29T0:40:6Z</time></trkpt>
<trkpt lat="46.64342429469367" lon="7.021029619413168"><ele></ele><time>2016-8-29T0:40:9Z</time></trkpt>
<trkpt lat="46.64355319920077" lon="7.021435812887942"><ele></ele><time>2016-8-29T0:40:12Z</time></trkpt>
<trkpt lat="46.64360423394479" lon="7.021912410750417"><ele></ele><time>2016-8-29T0:40:15Z</time></trkpt>
<trkpt lat="46.64385734995719" lon="7.0226880846970055"><ele></ele><time>2016-8-29T0:40:18Z</time></trkpt>
<trkpt lat="46.643992775140276" lon="7.023828952964235"><ele></ele><time>2016-8-29T0:40:21Z</time></trkpt>
<trkpt lat="46.64436079425601" lon="7.025165968858516"><ele></ele><time>2016-8-29T0:40:24Z</time></trkpt>
<trkpt lat="46.6442530830971" lon="7.025310216489356"><ele></ele><time>2016-8-29T0:40:27Z</time></trkpt>
<trkpt lat="46.643871284299216" lon="7.025394185317093"><ele></ele><time>2016-8-29T0:40:30Z</time></trkpt>
<trkpt lat="46.64350232236715" lon="7.024944310831704"><ele></ele><time>2016-8-29T0:40:33Z</time></trkpt>
<trkpt lat="46.64327408201959" lon="7.024963327054662"><ele></ele><time>2016-8-29T0:40:36Z</time></trkpt>
<trkpt lat="46.6427933757424" lon="7.02507872340469"><ele></ele><time>2016-8-29T0:40:39Z</time></trkpt>
<trkpt lat="46.642749702512454" lon="7.025223141685483"><ele></ele><time>2016-8-29T0:40:42Z</time></trkpt>
<trkpt lat="46.64281088205529" lon="7.025587170962758"><ele></ele><time>2016-8-29T0:40:45Z</time></trkpt>
<trkpt lat="46.642164551630906" lon="7.025585548066807"><ele></ele><time>2016-8-29T0:40:48Z</time></trkpt>
<trkpt lat="46.64097920113401" lon="7.024658704464013"><ele></ele><time>2016-8-29T0:40:51Z</time></trkpt>
<trkpt lat="46.64066755254795" lon="7.0250219618842715"><ele></ele><time>2016-8-29T0:40:54Z</time></trkpt>
<trkpt lat="46.63979242042172" lon="7.023959178185374"><ele></ele><time>2016-8-29T0:40:57Z</time></trkpt>
<trkpt lat="46.63948958535382" lon="7.023790016975029"><ele></ele><time>2016-8-29T0:41:0Z</time></trkpt>
<trkpt lat="46.63933838547558" lon="7.023360017784539"><ele></ele><time>2016-8-29T0:41:3Z</time></trkpt>
<trkpt lat="46.63919740515892" lon="7.023202347393611"><ele></ele><time>2016-8-29T0:41:6Z</time></trkpt>
<trkpt lat="46.63909413102455" lon="7.023576846371549"><ele></ele><time>2016-8-29T0:41:9Z</time></trkpt>
<trkpt lat="46.63823128186512" lon="7.024155241593911"><ele></ele><time>2016-8-29T0:41:12Z</time></trkpt>
<trkpt lat="46.63799958658287" lon="7.024957547359261"><ele></ele><time>2016-8-29T0:41:15Z</time></trkpt>
<trkpt lat="46.6371462445254" lon="7.024022421131381"><ele></ele><time>2016-8-29T0:41:18Z</time></trkpt>
<trkpt lat="46.63682957503781" lon="7.0240347276664545"><ele></ele><time>2016-8-29T0:41:21Z</time></trkpt>
<trkpt lat="46.63626889701581" lon="7.02450090331292"><ele></ele><time>2016-8-29T0:41:24Z</time></trkpt>
<trkpt lat="46.63611466576329" lon="7.0246629184431235"><ele></ele><time>2016-8-29T0:41:27Z</time></trkpt>
<trkpt lat="46.63589302991137" lon="7.025418202199035"><ele></ele><time>2016-8-29T0:41:30Z</time></trkpt>
<trkpt lat="46.635810130976395" lon="7.025489863662482"><ele></ele><time>2016-8-29T0:41:33Z</time></trkpt>
<trkpt lat="46.63585715338477" lon="7.0254984154207545"><ele></ele><time>2016-8-29T0:41:36Z</time></trkpt>
<trkpt lat="46.63584288672851" lon="7.026240130218169"><ele></ele><time>2016-8-29T0:41:39Z</time></trkpt>
<trkpt lat="46.63566844995746" lon="7.02661906831526"><ele></ele><time>2016-8-29T0:41:42Z</time></trkpt>
<trkpt lat="46.63500056484851" lon="7.027182552999219"><ele></ele><time>2016-8-29T0:41:45Z</time></trkpt>
<trkpt lat="46.634882713987864" lon="7.027224121761568"><ele></ele><time>2016-8-29T0:41:48Z</time></trkpt>
<trkpt lat="46.634550550819704" lon="7.026686909372198"><ele></ele><time>2016-8-29T0:41:51Z</time></trkpt>
<trkpt lat="46.63445122594321" lon="7.0266462524342606"><ele></ele><time>2016-8-29T0:41:54Z</time></trkpt>
<trkpt lat="46.63415324709036" lon="7.026704660391584"><ele></ele><time>2016-8-29T0:41:57Z</time></trkpt>
<trkpt lat="46.63366113553954" lon="7.027074195867081"><ele></ele><time>2016-8-29T0:42:0Z</time></trkpt>
<trkpt lat="46.63345862965854" lon="7.027011908753445"><ele></ele><time>2016-8-29T0:42:3Z</time></trkpt>
<trkpt lat="46.63330826102432" lon="7.026878545458562"><ele></ele><time>2016-8-29T0:42:6Z</time></trkpt>
<trkpt lat="46.633358722460116" lon="7.026782910193344"><ele></ele><time>2016-8-29T0:42:9Z</time></trkpt>
<trkpt lat="46.6333046581799" lon="7.026819452799924"><ele></ele><time>2016-8-29T0:42:12Z</time></trkpt>
<trkpt lat="46.63286863935888" lon="7.026436043623708"><ele></ele><time>2016-8-29T0:42:15Z</time></trkpt>
<trkpt lat="46.63252347119897" lon="7.026454886735294"><ele></ele><time>2016-8-29T0:42:18Z</time></trkpt>
<trkpt lat="46.632097664509295" lon="7.02666173238815"><ele></ele><time>2016-8-29T0:42:21Z</time></trkpt>
<trkpt lat="46.63186934714985" lon="7.0263925784270596"><ele></ele><time>2016-8-29T0:42:24Z</time></trkpt>
<trkpt lat="46.63162527504631" lon="7.025983697220257"><ele></ele><time>2016-8-29T0:42:27Z</time></trkpt>
<trkpt lat="46.63096934722993" lon="7.024205275756219"><ele></ele><time>2016-8-29T0:42:30Z</time></trkpt>
<trkpt lat="46.630274165911516" lon="7.023540473490631"><ele></ele><time>2016-8-29T0:42:33Z</time></trkpt>
<trkpt lat="46.629736274557104" lon="7.0209599921055945"><ele></ele><time>2016-8-29T0:42:36Z</time></trkpt>
<trkpt lat="46.62978364193313" lon="7.020556237529307"><ele></ele><time>2016-8-29T0:42:39Z</time></trkpt>
<trkpt lat="46.629486930688884" lon="7.020177109579292"><ele></ele><time>2016-8-29T0:42:42Z</time></trkpt>
<trkpt lat="46.62927974485084" lon="7.019524483976983"><ele></ele><time>2016-8-29T0:42:45Z</time></trkpt>
<trkpt lat="46.62946404902633" lon="7.020134863654018"><ele></ele><time>2016-8-29T0:42:48Z</time></trkpt>
<trkpt lat="46.62975464084929" lon="7.020540142888734"><ele></ele><time>2016-8-29T0:42:51Z</time></trkpt>
<trkpt lat="46.62976091669085" lon="7.020990922528791"><ele></ele><time>2016-8-29T0:42:54Z</time></trkpt>
<trkpt lat="46.6303094522858" lon="7.0236057702596915"><ele></ele><time>2016-8-29T0:42:57Z</time></trkpt>
<trkpt lat="46.63098007576851" lon="7.024219190237361"><ele></ele><time>2016-8-29T0:43:0Z</time></trkpt>
<trkpt lat="46.630943137038734" lon="7.02313012642426"><ele></ele><time>2016-8-29T0:43:3Z</time></trkpt>
<trkpt lat="46.63063086120607" lon="7.021652212668896"><ele></ele><time>2016-8-29T0:43:6Z</time></trkpt>
<trkpt lat="46.63063179870731" lon="7.020993394273664"><ele></ele><time>2016-8-29T0:43:9Z</time></trkpt>
<trkpt lat="46.630507759800416" lon="7.0204154554646445"><ele></ele><time>2016-8-29T0:43:12Z</time></trkpt>
<trkpt lat="46.63098258500828" lon="7.02087824328684"><ele></ele><time>2016-8-29T0:43:15Z</time></trkpt>
<trkpt lat="46.631593684941244" lon="7.021996167889943"><ele></ele><time>2016-8-29T0:43:18Z</time></trkpt>
<trkpt lat="46.63184111462826" lon="7.022199021840532"><ele></ele><time>2016-8-29T0:43:21Z</time></trkpt>
<trkpt lat="46.63187363926018" lon="7.02208159275915"><ele></ele><time>2016-8-29T0:43:24Z</time></trkpt>
<trkpt lat="46.63175739419037" lon="7.021560651352882"><ele></ele><time>2016-8-29T0:43:27Z</time></trkpt>
<trkpt lat="46.630556424294674" lon="7.018320314535899"><ele></ele><time>2016-8-29T0:43:30Z</time></trkpt>
<trkpt lat="46.630669330765166" lon="7.01823834473977"><ele></ele><time>2016-8-29T0:43:33Z</time></trkpt>
<trkpt lat="46.63076279727151" lon="7.017897372887317"><ele></ele><time>2016-8-29T0:43:36Z</time></trkpt>
<trkpt lat="46.630654345518856" lon="7.017457568748887"><ele></ele><time>2016-8-29T0:43:39Z</time></trkpt>
<trkpt lat="46.63048847218728" lon="7.017246420512641"><ele></ele><time>2016-8-29T0:43:42Z</time></trkpt>
<trkpt lat="46.63057760552081" lon="7.015827785779901"><ele></ele><time>2016-8-29T0:43:45Z</time></trkpt>
<trkpt lat="46.63082245825198" lon="7.015121118178444"><ele></ele><time>2016-8-29T0:43:48Z</time></trkpt>
<trkpt lat="46.63141952506833" lon="7.014179354546389"><ele></ele><time>2016-8-29T0:43:51Z</time></trkpt>
<trkpt lat="46.63154744372012" lon="7.013736544089173"><ele></ele><time>2016-8-29T0:43:54Z</time></trkpt>
<trkpt lat="46.63126733654194" lon="7.0130265827542795"><ele></ele><time>2016-8-29T0:43:57Z</time></trkpt>
<trkpt lat="46.6306741248886" lon="7.010446936887216"><ele></ele><time>2016-8-29T0:44:0Z</time></trkpt>
<trkpt lat="46.63067144837107" lon="7.010206375832189"><ele></ele><time>2016-8-29T0:44:3Z</time></trkpt>
<trkpt lat="46.63093942012177" lon="7.010139417031559"><ele></ele><time>2016-8-29T0:44:6Z</time></trkpt>
<trkpt lat="46.63103824681909" lon="7.009979327158573"><ele></ele><time>2016-8-29T0:44:9Z</time></trkpt>
<trkpt lat="46.631211686077876" lon="7.009252958727945"><ele></ele><time>2016-8-29T0:44:12Z</time></trkpt>
<trkpt lat="46.63169060985129" lon="7.008654687699699"><ele></ele><time>2016-8-29T0:44:15Z</time></trkpt>
<trkpt lat="46.63200632305206" lon="7.0079708988824505"><ele></ele><time>2016-8-29T0:44:18Z</time></trkpt>
<trkpt lat="46.631898305725215" lon="7.006888201984278"><ele></ele><time>2016-8-29T0:44:21Z</time></trkpt>
<trkpt lat="46.630839306621766" lon="7.00448044699939"><ele></ele><time>2016-8-29T0:44:24Z</time></trkpt>
<trkpt lat="46.63100041363081" lon="7.004211479041897"><ele></ele><time>2016-8-29T0:44:27Z</time></trkpt>
<trkpt lat="46.631327482549544" lon="7.00395182289864"><ele></ele><time>2016-8-29T0:44:30Z</time></trkpt>
<trkpt lat="46.631931836337884" lon="7.003240059524374"><ele></ele><time>2016-8-29T0:44:33Z</time></trkpt>
<trkpt lat="46.632409862403875" lon="7.003037072309086"><ele></ele><time>2016-8-29T0:44:36Z</time></trkpt>
<trkpt lat="46.63359330381238" lon="7.0031517931529255"><ele></ele><time>2016-8-29T0:44:39Z</time></trkpt>
<trkpt lat="46.6348759670918" lon="7.004114181553252"><ele></ele><time>2016-8-29T0:44:42Z</time></trkpt>
<trkpt lat="46.63487739526128" lon="7.003977891717863"><ele></ele><time>2016-8-29T0:44:45Z</time></trkpt>
<trkpt lat="46.63574027505316" lon="7.003137524103631"><ele></ele><time>2016-8-29T0:44:48Z</time></trkpt>
<trkpt lat="46.637348307659515" lon="7.000280244709163"><ele></ele><time>2016-8-29T0:44:51Z</time></trkpt>
<trkpt lat="46.637366165211446" lon="7.000110511835962"><ele></ele><time>2016-8-29T0:44:54Z</time></trkpt>
<trkpt lat="46.63727187206919" lon="6.999962315136031"><ele></ele><time>2016-8-29T0:44:57Z</time></trkpt>
<trkpt lat="46.636388693251725" lon="6.998922832104409"><ele></ele><time>2016-8-29T0:45:0Z</time></trkpt>
<trkpt lat="46.63609440445054" lon="6.998895912140354"><ele></ele><time>2016-8-29T0:45:3Z</time></trkpt>
<trkpt lat="46.635798099911504" lon="6.99903981545885"><ele></ele><time>2016-8-29T0:45:6Z</time></trkpt>
<trkpt lat="46.6357369251022" lon="6.99848459465112"><ele></ele><time>2016-8-29T0:45:9Z</time></trkpt>
<trkpt lat="46.63563475451784" lon="6.998271018646492"><ele></ele><time>2016-8-29T0:45:12Z</time></trkpt>
<trkpt lat="46.63693827555305" lon="6.996277945853928"><ele></ele><time>2016-8-29T0:45:15Z</time></trkpt>
<trkpt lat="46.637550251629605" lon="6.995792829983396"><ele></ele><time>2016-8-29T0:45:18Z</time></trkpt>
<trkpt lat="46.6378417006907" lon="6.995397217644456"><ele></ele><time>2016-8-29T0:45:21Z</time></trkpt>
<trkpt lat="46.63795210569333" lon="6.994769333880965"><ele></ele><time>2016-8-29T0:45:24Z</time></trkpt>
<trkpt lat="46.637775272183056" lon="6.9937190718443984"><ele></ele><time>2016-8-29T0:45:27Z</time></trkpt>
<trkpt lat="46.63782725969757" lon="6.992902340813089"><ele></ele><time>2016-8-29T0:45:30Z</time></trkpt>
<trkpt lat="46.638221828461496" lon="6.991590003716016"><ele></ele><time>2016-8-29T0:45:33Z</time></trkpt>
<trkpt lat="46.63846424596658" lon="6.991082406728193"><ele></ele><time>2016-8-29T0:45:36Z</time></trkpt>
<trkpt lat="46.63870924962427" lon="6.9910852683051035"><ele></ele><time>2016-8-29T0:45:39Z</time></trkpt>
<trkpt lat="46.63939084142165" lon="6.9921907074494065"><ele></ele><time>2016-8-29T0:45:42Z</time></trkpt>
<trkpt lat="46.639495843530526" lon="6.9931686301136295"><ele></ele><time>2016-8-29T0:45:45Z</time></trkpt>
<trkpt lat="46.63996134258511" lon="6.994554266180396"><ele></ele><time>2016-8-29T0:45:48Z</time></trkpt>
<trkpt lat="46.64046894614175" lon="6.9983098058958575"><ele></ele><time>2016-8-29T0:45:51Z</time></trkpt>
<trkpt lat="46.64046105277181" lon="6.998911291493476"><ele></ele><time>2016-8-29T0:45:54Z</time></trkpt>
<trkpt lat="46.640144276303126" lon="6.999893468804483"><ele></ele><time>2016-8-29T0:45:57Z</time></trkpt>
<trkpt lat="46.640175282250084" lon="7.000194716185571"><ele></ele><time>2016-8-29T0:46:0Z</time></trkpt>
<trkpt lat="46.64043007478421" lon="7.000952201668572"><ele></ele><time>2016-8-29T0:46:3Z</time></trkpt>
<trkpt lat="46.64144511184681" lon="7.0015547417706125"><ele></ele><time>2016-8-29T0:46:6Z</time></trkpt>
<trkpt lat="46.64208530111527" lon="7.002493881565048"><ele></ele><time>2016-8-29T0:46:9Z</time></trkpt>
<trkpt lat="46.64304869351197" lon="7.003602602749198"><ele></ele><time>2016-8-29T0:46:12Z</time></trkpt>
<trkpt lat="46.64374629390016" lon="7.0047580823155435"><ele></ele><time>2016-8-29T0:46:15Z</time></trkpt>
<trkpt lat="46.644161278528514" lon="7.004952897630799"><ele></ele><time>2016-8-29T0:46:18Z</time></trkpt>
<trkpt lat="46.64444709295208" lon="7.005345352263215"><ele></ele><time>2016-8-29T0:46:21Z</time></trkpt>
<trkpt lat="46.644822768515965" lon="7.005448802876129"><ele></ele><time>2016-8-29T0:46:24Z</time></trkpt>
<trkpt lat="46.64543195245194" lon="7.0060639802077755"><ele></ele><time>2016-8-29T0:46:27Z</time></trkpt>
<trkpt lat="46.645770648590045" lon="7.006804789524983"><ele></ele><time>2016-8-29T0:46:30Z</time></trkpt>
<trkpt lat="46.6458298040919" lon="7.007686150212292"><ele></ele><time>2016-8-29T0:46:33Z</time></trkpt>
<trkpt lat="46.64600010284502" lon="7.008615293053675"><ele></ele><time>2016-8-29T0:46:36Z</time></trkpt>
<trkpt lat="46.64596999244756" lon="7.0094285883936305"><ele></ele><time>2016-8-29T0:46:39Z</time></trkpt>
<trkpt lat="46.64749666172105" lon="7.0100703797387"><ele></ele><time>2016-8-29T0:46:42Z</time></trkpt>
<trkpt lat="46.64767980952207" lon="7.009958154634889"><ele></ele><time>2016-8-29T0:46:45Z</time></trkpt>
<trkpt lat="46.64780313061335" lon="7.0089907204223"><ele></ele><time>2016-8-29T0:46:48Z</time></trkpt>
<trkpt lat="46.647426854312606" lon="7.005943040095639"><ele></ele><time>2016-8-29T0:46:51Z</time></trkpt>
<trkpt lat="46.64753519196443" lon="7.004127858802332"><ele></ele><time>2016-8-29T0:46:54Z</time></trkpt>
<trkpt lat="46.646493336312886" lon="6.999848760312551"><ele></ele><time>2016-8-29T0:46:57Z</time></trkpt>
<trkpt lat="46.64674941302674" lon="6.999479884641366"><ele></ele><time>2016-8-29T0:47:0Z</time></trkpt>
<trkpt lat="46.647181003079524" lon="6.999289132925824"><ele></ele><time>2016-8-29T0:47:3Z</time></trkpt>
<trkpt lat="46.64960870302313" lon="7.001047773189179"><ele></ele><time>2016-8-29T0:47:6Z</time></trkpt>
<trkpt lat="46.6506122637185" lon="7.001370272997176"><ele></ele><time>2016-8-29T0:47:9Z</time></trkpt>
<trkpt lat="46.65152296040507" lon="7.001367550296658"><ele></ele><time>2016-8-29T0:47:12Z</time></trkpt>
<trkpt lat="46.65323288061492" lon="7.001091363939459"><ele></ele><time>2016-8-29T0:47:15Z</time></trkpt>
<trkpt lat="46.6537398286267" lon="7.000717806396059"><ele></ele><time>2016-8-29T0:47:18Z</time></trkpt>
<trkpt lat="46.65393982556452" lon="7.000546070608544"><ele></ele><time>2016-8-29T0:47:21Z</time></trkpt>
<trkpt lat="46.654004957815616" lon="7.000350691420783"><ele></ele><time>2016-8-29T0:47:24Z</time></trkpt>
<trkpt lat="46.65405860999843" lon="7.000022123160779"><ele></ele><time>2016-8-29T0:47:27Z</time></trkpt>
<trkpt lat="46.65398821306303" lon="6.999549212529432"><ele></ele><time>2016-8-29T0:47:30Z</time></trkpt>
<trkpt lat="46.65406759822448" lon="6.999201786202271"><ele></ele><time>2016-8-29T0:47:33Z</time></trkpt>
<trkpt lat="46.65399217906574" lon="6.998438526019181"><ele></ele><time>2016-8-29T0:47:36Z</time></trkpt>
<trkpt lat="46.653715001389365" lon="6.99790466905241"><ele></ele><time>2016-8-29T0:47:39Z</time></trkpt>
<trkpt lat="46.65375032296868" lon="6.9964955880864"><ele></ele><time>2016-8-29T0:47:42Z</time></trkpt>
<trkpt lat="46.653525452000835" lon="6.9958174809515645"><ele></ele><time>2016-8-29T0:47:45Z</time></trkpt>
<trkpt lat="46.65345691874455" lon="6.99452431681859"><ele></ele><time>2016-8-29T0:47:48Z</time></trkpt>
<trkpt lat="46.65353671886928" lon="6.9943507313027755"><ele></ele><time>2016-8-29T0:47:51Z</time></trkpt>
<trkpt lat="46.65451801257906" lon="6.993465648649297"><ele></ele><time>2016-8-29T0:47:54Z</time></trkpt>
<trkpt lat="46.65577361777204" lon="6.997302275629143"><ele></ele><time>2016-8-29T0:47:57Z</time></trkpt>
<trkpt lat="46.6578038029097" lon="7.004431939295379"><ele></ele><time>2016-8-29T0:48:0Z</time></trkpt>
<trkpt lat="46.65795817559071" lon="7.005378180184643"><ele></ele><time>2016-8-29T0:48:3Z</time></trkpt>
<trkpt lat="46.658083280841645" lon="7.006935796022959"><ele></ele><time>2016-8-29T0:48:6Z</time></trkpt>
<trkpt lat="46.65806340315444" lon="7.007463268529803"><ele></ele><time>2016-8-29T0:48:9Z</time></trkpt>
<trkpt lat="46.657765810740734" lon="7.008892453509508"><ele></ele><time>2016-8-29T0:48:12Z</time></trkpt>
<trkpt lat="46.65787851181424" lon="7.010408159222446"><ele></ele><time>2016-8-29T0:48:15Z</time></trkpt>
<trkpt lat="46.65794984042281" lon="7.010476642784609"><ele></ele><time>2016-8-29T0:48:18Z</time></trkpt>
<trkpt lat="46.65807725118218" lon="7.010247906554282"><ele></ele><time>2016-8-29T0:48:21Z</time></trkpt>
<trkpt lat="46.65844806995094" lon="7.010156812771886"><ele></ele><time>2016-8-29T0:48:24Z</time></trkpt>
<trkpt lat="46.65846231703475" lon="7.010249684982502"><ele></ele><time>2016-8-29T0:48:27Z</time></trkpt>
<trkpt lat="46.65904276656576" lon="7.010214759904612"><ele></ele><time>2016-8-29T0:48:30Z</time></trkpt>
<trkpt lat="46.65907638101103" lon="7.010092134189703"><ele></ele><time>2016-8-29T0:48:33Z</time></trkpt>
<trkpt lat="46.65894756157637" lon="7.009634224485414"><ele></ele><time>2016-8-29T0:48:36Z</time></trkpt>
<trkpt lat="46.65883015346236" lon="7.0086744066971285"><ele></ele><time>2016-8-29T0:48:39Z</time></trkpt>
<trkpt lat="46.65894694558037" lon="7.007332049748565"><ele></ele><time>2016-8-29T0:48:42Z</time></trkpt>
<trkpt lat="46.65870233761846" lon="7.004779328216266"><ele></ele><time>2016-8-29T0:48:45Z</time></trkpt>
<trkpt lat="46.65890554690616" lon="7.003463043117868"><ele></ele><time>2016-8-29T0:48:48Z</time></trkpt>
<trkpt lat="46.65890011339395" lon="7.002843200803429"><ele></ele><time>2016-8-29T0:48:51Z</time></trkpt>
<trkpt lat="46.65887891509025" lon="7.0025077558593765"><ele></ele><time>2016-8-29T0:48:54Z</time></trkpt>
<trkpt lat="46.65873919877808" lon="7.002067699073741"><ele></ele><time>2016-8-29T0:48:57Z</time></trkpt>
<trkpt lat="46.65922804009353" lon="7.001768823504013"><ele></ele><time>2016-8-29T0:49:0Z</time></trkpt>
<trkpt lat="46.66020347598272" lon="7.0004842588094185"><ele></ele><time>2016-8-29T0:49:3Z</time></trkpt>
<trkpt lat="46.6606356476529" lon="7.000513280778119"><ele></ele><time>2016-8-29T0:49:6Z</time></trkpt>
<trkpt lat="46.66090377591646" lon="7.000920905677023"><ele></ele><time>2016-8-29T0:49:9Z</time></trkpt>
<trkpt lat="46.6609938742253" lon="7.0012337227325805"><ele></ele><time>2016-8-29T0:49:12Z</time></trkpt>
<trkpt lat="46.6611057735044" lon="7.001212773289074"><ele></ele><time>2016-8-29T0:49:15Z</time></trkpt>
<trkpt lat="46.66134309700948" lon="6.999910152430648"><ele></ele><time>2016-8-29T0:49:18Z</time></trkpt>
<trkpt lat="46.66151678370928" lon="6.999361229621024"><ele></ele><time>2016-8-29T0:49:21Z</time></trkpt>
<trkpt lat="46.66146725988921" lon="6.99879963950319"><ele></ele><time>2016-8-29T0:49:24Z</time></trkpt>
<trkpt lat="46.66084470285851" lon="6.996587289313764"><ele></ele><time>2016-8-29T0:49:27Z</time></trkpt>
<trkpt lat="46.66020762242428" lon="6.995326200998377"><ele></ele><time>2016-8-29T0:49:30Z</time></trkpt>
<trkpt lat="46.660059274703194" lon="6.994805342207035"><ele></ele><time>2016-8-29T0:49:33Z</time></trkpt>
<trkpt lat="46.66018310636503" lon="6.9900316843890415"><ele></ele><time>2016-8-29T0:49:36Z</time></trkpt>
<trkpt lat="46.66042720567069" lon="6.989303475993212"><ele></ele><time>2016-8-29T0:49:39Z</time></trkpt>
<trkpt lat="46.66062091954652" lon="6.988993103255839"><ele></ele><time>2016-8-29T0:49:42Z</time></trkpt>
<trkpt lat="46.662437134083035" lon="6.988256001576406"><ele></ele><time>2016-8-29T0:49:45Z</time></trkpt>
<trkpt lat="46.66338764942474" lon="6.988075919960255"><ele></ele><time>2016-8-29T0:49:48Z</time></trkpt>
<trkpt lat="46.66430136061501" lon="6.98820764349774"><ele></ele><time>2016-8-29T0:49:51Z</time></trkpt>
<trkpt lat="46.66470485952547" lon="6.988510668739148"><ele></ele><time>2016-8-29T0:49:54Z</time></trkpt>
<trkpt lat="46.6653404322549" lon="6.9897250697237405"><ele></ele><time>2016-8-29T0:49:57Z</time></trkpt>
<trkpt lat="46.66558073747299" lon="6.989923732399612"><ele></ele><time>2016-8-29T0:50:0Z</time></trkpt>
<trkpt lat="46.66613570237283" lon="6.990040854193474"><ele></ele><time>2016-8-29T0:50:3Z</time></trkpt>
<trkpt lat="46.66716649880477" lon="6.990606514527259"><ele></ele><time>2016-8-29T0:50:6Z</time></trkpt>
<trkpt lat="46.66797318157158" lon="6.990372446518072"><ele></ele><time>2016-8-29T0:50:9Z</time></trkpt>
<trkpt lat="46.66981074501811" lon="6.990689202842031"><ele></ele><time>2016-8-29T0:50:12Z</time></trkpt>
<trkpt lat="46.67093172278041" lon="6.991603387013951"><ele></ele><time>2016-8-29T0:50:15Z</time></trkpt>
<trkpt lat="46.67117814026405" lon="6.992076724955712"><ele></ele><time>2016-8-29T0:50:18Z</time></trkpt>
<trkpt lat="46.670877896145015" lon="6.992213922378245"><ele></ele><time>2016-8-29T0:50:21Z</time></trkpt>
<trkpt lat="46.67050052530105" lon="6.992891748974708"><ele></ele><time>2016-8-29T0:50:24Z</time></trkpt>
<trkpt lat="46.67035147904269" lon="6.993539076360808"><ele></ele><time>2016-8-29T0:50:27Z</time></trkpt>
<trkpt lat="46.67037383832211" lon="6.994395121369576"><ele></ele><time>2016-8-29T0:50:30Z</time></trkpt>
<trkpt lat="46.67031423334549" lon="6.994789654784158"><ele></ele><time>2016-8-29T0:50:33Z</time></trkpt>
<trkpt lat="46.67001280421893" lon="6.995409901355617"><ele></ele><time>2016-8-29T0:50:36Z</time></trkpt>
<trkpt lat="46.66999636327393" lon="6.995926980285669"><ele></ele><time>2016-8-29T0:50:39Z</time></trkpt>
<trkpt lat="46.67009996153005" lon="6.996028741554604"><ele></ele><time>2016-8-29T0:50:42Z</time></trkpt>
<trkpt lat="46.67096824172923" lon="6.996205054440084"><ele></ele><time>2016-8-29T0:50:45Z</time></trkpt>
<trkpt lat="46.67121365706612" lon="6.9965255901828005"><ele></ele><time>2016-8-29T0:50:48Z</time></trkpt>
<trkpt lat="46.67164130682287" lon="6.996377334690462"><ele></ele><time>2016-8-29T0:50:51Z</time></trkpt>
<trkpt lat="46.671840113072996" lon="6.996930046958389"><ele></ele><time>2016-8-29T0:50:54Z</time></trkpt>
<trkpt lat="46.67221158643267" lon="6.997512774670509"><ele></ele><time>2016-8-29T0:50:57Z</time></trkpt>
<trkpt lat="46.67247175616135" lon="6.997742115977876"><ele></ele><time>2016-8-29T0:51:0Z</time></trkpt>
<trkpt lat="46.672997970101854" lon="6.997902235433176"><ele></ele><time>2016-8-29T0:51:3Z</time></trkpt>
<trkpt lat="46.67264019844458" lon="6.999191606726064"><ele></ele><time>2016-8-29T0:51:6Z</time></trkpt>
<trkpt lat="46.672234998160434" lon="6.999931709588791"><ele></ele><time>2016-8-29T0:51:9Z</time></trkpt>
<trkpt lat="46.671266366493256" lon="7.000582099274051"><ele></ele><time>2016-8-29T0:51:12Z</time></trkpt>
<trkpt lat="46.67215972583749" lon="7.000039329658368"><ele></ele><time>2016-8-29T0:51:15Z</time></trkpt>
<trkpt lat="46.67267515213669" lon="6.999148357764498"><ele></ele><time>2016-8-29T0:51:18Z</time></trkpt>
<trkpt lat="46.67307798805323" lon="6.999139575952507"><ele></ele><time>2016-8-29T0:51:21Z</time></trkpt>
<trkpt lat="46.67369422079314" lon="6.999432888129434"><ele></ele><time>2016-8-29T0:51:24Z</time></trkpt>
<trkpt lat="46.6741954724507" lon="6.998927650827461"><ele></ele><time>2016-8-29T0:51:27Z</time></trkpt>
<trkpt lat="46.67444860382149" lon="6.999054229635433"><ele></ele><time>2016-8-29T0:51:30Z</time></trkpt>
<trkpt lat="46.67472100713364" lon="6.9994538079691875"><ele></ele><time>2016-8-29T0:51:33Z</time></trkpt>
<trkpt lat="46.677060731496844" lon="6.999814760333587"><ele></ele><time>2016-8-29T0:51:36Z</time></trkpt>
<trkpt lat="46.677107660062866" lon="7.000245592400451"><ele></ele><time>2016-8-29T0:51:39Z</time></trkpt>
<trkpt lat="46.67696362929982" lon="7.001469427258363"><ele></ele><time>2016-8-29T0:51:42Z</time></trkpt>
<trkpt lat="46.6770706485263" lon="7.002228832794587"><ele></ele><time>2016-8-29T0:51:45Z</time></trkpt>
<trkpt lat="46.678837031686776" lon="7.006836867951091"><ele></ele><time>2016-8-29T0:51:48Z</time></trkpt>
<trkpt lat="46.67893191463149" lon="7.006860090322235"><ele></ele><time>2016-8-29T0:51:51Z</time></trkpt>
<trkpt lat="46.67900737042871" lon="7.006084767877325"><ele></ele><time>2016-8-29T0:51:54Z</time></trkpt>
<trkpt lat="46.67916378218592" lon="7.005879753953057"><ele></ele><time>2016-8-29T0:51:57Z</time></trkpt>
<trkpt lat="46.68008410383988" lon="7.006500980433908"><ele></ele><time>2016-8-29T0:52:0Z</time></trkpt>
<trkpt lat="46.680660271997944" lon="7.006754727955806"><ele></ele><time>2016-8-29T0:52:3Z</time></trkpt>
<trkpt lat="46.680664871181754" lon="7.007213637340506"><ele></ele><time>2016-8-29T0:52:6Z</time></trkpt>
<trkpt lat="46.68029713355063" lon="7.008148956422881"><ele></ele><time>2016-8-29T0:52:9Z</time></trkpt>
<trkpt lat="46.68016351163634" lon="7.008734928908443"><ele></ele><time>2016-8-29T0:52:12Z</time></trkpt>
<trkpt lat="46.6802161139691" lon="7.0102650477377075"><ele></ele><time>2016-8-29T0:52:15Z</time></trkpt>
<trkpt lat="46.68016110854545" lon="7.011107929270917"><ele></ele><time>2016-8-29T0:52:18Z</time></trkpt>
<trkpt lat="46.680103097427136" lon="7.011451919814303"><ele></ele><time>2016-8-29T0:52:21Z</time></trkpt>
<trkpt lat="46.679813987801275" lon="7.01215891963957"><ele></ele><time>2016-8-29T0:52:24Z</time></trkpt>
<trkpt lat="46.67964456795223" lon="7.013046136044142"><ele></ele><time>2016-8-29T0:52:27Z</time></trkpt>
<trkpt lat="46.679697785221066" lon="7.013385605623669"><ele></ele><time>2016-8-29T0:52:30Z</time></trkpt>
<trkpt lat="46.679662392597514" lon="7.014269559424625"><ele></ele><time>2016-8-29T0:52:33Z</time></trkpt>
<trkpt lat="46.67984140892378" lon="7.015193588843728"><ele></ele><time>2016-8-29T0:52:36Z</time></trkpt>
<trkpt lat="46.68012277038888" lon="7.016045287261984"><ele></ele><time>2016-8-29T0:52:39Z</time></trkpt>
<trkpt lat="46.68059809084928" lon="7.016853828015454"><ele></ele><time>2016-8-29T0:52:42Z</time></trkpt>
<trkpt lat="46.680745682614386" lon="7.0174528057357115"><ele></ele><time>2016-8-29T0:52:45Z</time></trkpt>
<trkpt lat="46.680697650025444" lon="7.017627147045867"><ele></ele><time>2016-8-29T0:52:48Z</time></trkpt>
<trkpt lat="46.68021358773323" lon="7.01786391298099"><ele></ele><time>2016-8-29T0:52:51Z</time></trkpt>
<trkpt lat="46.680087855066915" lon="7.01801897225623"><ele></ele><time>2016-8-29T0:52:54Z</time></trkpt>
<trkpt lat="46.6798445098596" lon="7.0187692249093105"><ele></ele><time>2016-8-29T0:52:57Z</time></trkpt>
<trkpt lat="46.679799228982475" lon="7.019553098328747"><ele></ele><time>2016-8-29T0:53:0Z</time></trkpt>
<trkpt lat="46.6808202013675" lon="7.020875056259844"><ele></ele><time>2016-8-29T0:53:3Z</time></trkpt>
<trkpt lat="46.680926978696185" lon="7.021237830027253"><ele></ele><time>2016-8-29T0:53:6Z</time></trkpt>
<trkpt lat="46.68126812453497" lon="7.021191075058535"><ele></ele><time>2016-8-29T0:53:9Z</time></trkpt>
<trkpt lat="46.68245918049139" lon="7.021914405430561"><ele></ele><time>2016-8-29T0:53:12Z</time></trkpt>
<trkpt lat="46.683525442878775" lon="7.0220662518130545"><ele></ele><time>2016-8-29T0:53:15Z</time></trkpt>
<trkpt lat="46.684856055552636" lon="7.022899223947241"><ele></ele><time>2016-8-29T0:53:18Z</time></trkpt>
<trkpt lat="46.68590722681223" lon="7.023208816968904"><ele></ele><time>2016-8-29T0:53:21Z</time></trkpt>
<trkpt lat="46.68683919320988" lon="7.024105640374972"><ele></ele><time>2016-8-29T0:53:24Z</time></trkpt>
<trkpt lat="46.68703675753267" lon="7.024016047129469"><ele></ele><time>2016-8-29T0:53:27Z</time></trkpt>
<trkpt lat="46.687125099433" lon="7.024174050115966"><ele></ele><time>2016-8-29T0:53:30Z</time></trkpt>
<trkpt lat="46.68721906168623" lon="7.024141868028165"><ele></ele><time>2016-8-29T0:53:33Z</time></trkpt>
<trkpt lat="46.686945382789965" lon="7.024513089580804"><ele></ele><time>2016-8-29T0:53:36Z</time></trkpt>
<trkpt lat="46.684499252851886" lon="7.025782078478263"><ele></ele><time>2016-8-29T0:53:39Z</time></trkpt>
<trkpt lat="46.68449036352045" lon="7.025973520698074"><ele></ele><time>2016-8-29T0:53:42Z</time></trkpt>
<trkpt lat="46.68510716849928" lon="7.026898660119354"><ele></ele><time>2016-8-29T0:53:45Z</time></trkpt>
<trkpt lat="46.685811882143796" lon="7.028588233046495"><ele></ele><time>2016-8-29T0:53:48Z</time></trkpt>
<trkpt lat="46.68634679840617" lon="7.029396105758185"><ele></ele><time>2016-8-29T0:53:51Z</time></trkpt>
<trkpt lat="46.68664952863642" lon="7.030479648314967"><ele></ele><time>2016-8-29T0:53:54Z</time></trkpt>
<trkpt lat="46.686874409426856" lon="7.030760201072796"><ele></ele><time>2016-8-29T0:53:57Z</time></trkpt>
<trkpt lat="46.68715023685309" lon="7.03170720117505"><ele></ele><time>2016-8-29T0:54:0Z</time></trkpt>
<trkpt lat="46.68741937289557" lon="7.032046848393814"><ele></ele><time>2016-8-29T0:54:3Z</time></trkpt>
<trkpt lat="46.687640977094354" lon="7.032655720049219"><ele></ele><time>2016-8-29T0:54:6Z</time></trkpt>
<trkpt lat="46.687690670364276" lon="7.033154277848071"><ele></ele><time>2016-8-29T0:54:9Z</time></trkpt>
<trkpt lat="46.687501640293235" lon="7.03390260514953"><ele></ele><time>2016-8-29T0:54:12Z</time></trkpt>
<trkpt lat="46.68734237506674" lon="7.034265617851537"><ele></ele><time>2016-8-29T0:54:15Z</time></trkpt>
<trkpt lat="46.68709435055762" lon="7.034395861016495"><ele></ele><time>2016-8-29T0:54:18Z</time></trkpt>
<trkpt lat="46.686800806604495" lon="7.034764064235982"><ele></ele><time>2016-8-29T0:54:21Z</time></trkpt>
<trkpt lat="46.686894171724106" lon="7.035178805068778"><ele></ele><time>2016-8-29T0:54:24Z</time></trkpt>
<trkpt lat="46.687245365047914" lon="7.035599676715906"><ele></ele><time>2016-8-29T0:54:27Z</time></trkpt>
<trkpt lat="46.68795488824432" lon="7.035929789080112"><ele></ele><time>2016-8-29T0:54:30Z</time></trkpt>
<trkpt lat="46.68821999980972" lon="7.036320062755434"><ele></ele><time>2016-8-29T0:54:33Z</time></trkpt>
<trkpt lat="46.68762153167018" lon="7.039842780247176"><ele></ele><time>2016-8-29T0:54:36Z</time></trkpt>
<trkpt lat="46.68768981530817" lon="7.041100739142932"><ele></ele><time>2016-8-29T0:54:39Z</time></trkpt>
<trkpt lat="46.68847516813386" lon="7.042594681867827"><ele></ele><time>2016-8-29T0:54:42Z</time></trkpt>
<trkpt lat="46.68863616704199" lon="7.043376720702081"><ele></ele><time>2016-8-29T0:54:45Z</time></trkpt>
<trkpt lat="46.68873146643269" lon="7.043516116139584"><ele></ele><time>2016-8-29T0:54:48Z</time></trkpt>
<trkpt lat="46.6892472010035" lon="7.0437738835379875"><ele></ele><time>2016-8-29T0:54:51Z</time></trkpt>
<trkpt lat="46.689451125637035" lon="7.044114617270585"><ele></ele><time>2016-8-29T0:54:54Z</time></trkpt>
<trkpt lat="46.68964684064412" lon="7.044253262993287"><ele></ele><time>2016-8-29T0:54:57Z</time></trkpt>
<trkpt lat="46.69015897448391" lon="7.044359988360143"><ele></ele><time>2016-8-29T0:55:0Z</time></trkpt>
<trkpt lat="46.6906017972493" lon="7.044140570760624"><ele></ele><time>2016-8-29T0:55:3Z</time></trkpt>
<trkpt lat="46.69067262247188" lon="7.044233194048325"><ele></ele><time>2016-8-29T0:55:6Z</time></trkpt>
<trkpt lat="46.690585525558745" lon="7.044605262566488"><ele></ele><time>2016-8-29T0:55:9Z</time></trkpt>
<trkpt lat="46.69075710447774" lon="7.044575766240006"><ele></ele><time>2016-8-29T0:55:12Z</time></trkpt>
<trkpt lat="46.690726260715444" lon="7.044499405695663"><ele></ele><time>2016-8-29T0:55:15Z</time></trkpt>
<trkpt lat="46.69086263637137" lon="7.044432273003118"><ele></ele><time>2016-8-29T0:55:18Z</time></trkpt>
<trkpt lat="46.690633556762464" lon="7.044488002008397"><ele></ele><time>2016-8-29T0:55:21Z</time></trkpt>
<trkpt lat="46.6906591188071" lon="7.044611887683299"><ele></ele><time>2016-8-29T0:55:24Z</time></trkpt>
<trkpt lat="46.690484256058085" lon="7.045285616728519"><ele></ele><time>2016-8-29T0:55:27Z</time></trkpt>
<trkpt lat="46.69079126734184" lon="7.046110912885729"><ele></ele><time>2016-8-29T0:55:30Z</time></trkpt>
<trkpt lat="46.69101991817589" lon="7.046474697963712"><ele></ele><time>2016-8-29T0:55:33Z</time></trkpt>
<trkpt lat="46.69148167250537" lon="7.04675878197004"><ele></ele><time>2016-8-29T0:55:36Z</time></trkpt>
<trkpt lat="46.6919156866502" lon="7.046868521160501"><ele></ele><time>2016-8-29T0:55:39Z</time></trkpt>
<trkpt lat="46.69259395322461" lon="7.046857237032675"><ele></ele><time>2016-8-29T0:55:42Z</time></trkpt>
<trkpt lat="46.69293475490899" lon="7.047198312336742"><ele></ele><time>2016-8-29T0:55:45Z</time></trkpt>
<trkpt lat="46.693102643910464" lon="7.04725003643915"><ele></ele><time>2016-8-29T0:55:48Z</time></trkpt>
<trkpt lat="46.693508415802256" lon="7.0471489695309275"><ele></ele><time>2016-8-29T0:55:51Z</time></trkpt>
<trkpt lat="46.69378334787875" lon="7.046951756171312"><ele></ele><time>2016-8-29T0:55:54Z</time></trkpt>
<trkpt lat="46.69387068677044" lon="7.046990400776965"><ele></ele><time>2016-8-29T0:55:57Z</time></trkpt>
<trkpt lat="46.69348224524984" lon="7.047969472489601"><ele></ele><time>2016-8-29T0:56:0Z</time></trkpt>
<trkpt lat="46.69280934532379" lon="7.047884365036436"><ele></ele><time>2016-8-29T0:56:3Z</time></trkpt>
<trkpt lat="46.691185004747176" lon="7.0481048175922405"><ele></ele><time>2016-8-29T0:56:6Z</time></trkpt>
<trkpt lat="46.6902293851708" lon="7.047888101203957"><ele></ele><time>2016-8-29T0:56:9Z</time></trkpt>
<trkpt lat="46.6900048291363" lon="7.048060003583708"><ele></ele><time>2016-8-29T0:56:12Z</time></trkpt>
<trkpt lat="46.68992335173365" lon="7.048276252845925"><ele></ele><time>2016-8-29T0:56:15Z</time></trkpt>
<trkpt lat="46.68983022108135" lon="7.048594928395329"><ele></ele><time>2016-8-29T0:56:18Z</time></trkpt>
<trkpt lat="46.68975719388678" lon="7.04948659160586"><ele></ele><time>2016-8-29T0:56:21Z</time></trkpt>
<trkpt lat="46.68947221588125" lon="7.049146608524861"><ele></ele><time>2016-8-29T0:56:24Z</time></trkpt>
<trkpt lat="46.689228472010214" lon="7.049023550939664"><ele></ele><time>2016-8-29T0:56:27Z</time></trkpt>
<trkpt lat="46.687897249972764" lon="7.049151816225091"><ele></ele><time>2016-8-29T0:56:30Z</time></trkpt>
<trkpt lat="46.688089272617496" lon="7.049477964882163"><ele></ele><time>2016-8-29T0:56:33Z</time></trkpt>
<trkpt lat="46.688377692042764" lon="7.049607981513091"><ele></ele><time>2016-8-29T0:56:36Z</time></trkpt>
<trkpt lat="46.68868513096208" lon="7.050064054967157"><ele></ele><time>2016-8-29T0:56:39Z</time></trkpt>
<trkpt lat="46.68885951675632" lon="7.051903554998259"><ele></ele><time>2016-8-29T0:56:42Z</time></trkpt>
<trkpt lat="46.688713672453076" lon="7.051843282391335"><ele></ele><time>2016-8-29T0:56:45Z</time></trkpt>
<trkpt lat="46.68786116638441" lon="7.050945206112615"><ele></ele><time>2016-8-29T0:56:48Z</time></trkpt>
<trkpt lat="46.68709457713397" lon="7.049962476564369"><ele></ele><time>2016-8-29T0:56:51Z</time></trkpt>
<trkpt lat="46.68673374260927" lon="7.049623076685844"><ele></ele><time>2016-8-29T0:56:54Z</time></trkpt>
<trkpt lat="46.6863985519962" lon="7.049492890247098"><ele></ele><time>2016-8-29T0:56:57Z</time></trkpt>
<trkpt lat="46.68590922695921" lon="7.048955755353434"><ele></ele><time>2016-8-29T0:57:0Z</time></trkpt>
<trkpt lat="46.684131693379655" lon="7.047936769074092"><ele></ele><time>2016-8-29T0:57:3Z</time></trkpt>
<trkpt lat="46.68347178294748" lon="7.047965823710057"><ele></ele><time>2016-8-29T0:57:6Z</time></trkpt>
<trkpt lat="46.68335544472575" lon="7.047833971001568"><ele></ele><time>2016-8-29T0:57:9Z</time></trkpt>
<trkpt lat="46.683347328910344" lon="7.047197951892977"><ele></ele><time>2016-8-29T0:57:12Z</time></trkpt>
<trkpt lat="46.683177938575355" lon="7.046826122864562"><ele></ele><time>2016-8-29T0:57:15Z</time></trkpt>
<trkpt lat="46.682874352801065" lon="7.046482953717619"><ele></ele><time>2016-8-29T0:57:18Z</time></trkpt>
<trkpt lat="46.68241214401286" lon="7.047735775233214"><ele></ele><time>2016-8-29T0:57:21Z</time></trkpt>
<trkpt lat="46.682310206926935" lon="7.0482893113430265"><ele></ele><time>2016-8-29T0:57:24Z</time></trkpt>
<trkpt lat="46.68233408666158" lon="7.048670437548751"><ele></ele><time>2016-8-29T0:57:27Z</time></trkpt>
<trkpt lat="46.68260858381058" lon="7.04915777405586"><ele></ele><time>2016-8-29T0:57:30Z</time></trkpt>
<trkpt lat="46.68339488548467" lon="7.049490488142436"><ele></ele><time>2016-8-29T0:57:33Z</time></trkpt>
<trkpt lat="46.68434018149854" lon="7.050300726521929"><ele></ele><time>2016-8-29T0:57:36Z</time></trkpt>
<trkpt lat="46.68470922617106" lon="7.05081991858924"><ele></ele><time>2016-8-29T0:57:39Z</time></trkpt>
<trkpt lat="46.68494960071385" lon="7.051662227011605"><ele></ele><time>2016-8-29T0:57:42Z</time></trkpt>
<trkpt lat="46.6859530859692" lon="7.051665207053"><ele></ele><time>2016-8-29T0:57:45Z</time></trkpt>
<trkpt lat="46.686745751182286" lon="7.052293886287549"><ele></ele><time>2016-8-29T0:57:48Z</time></trkpt>
<trkpt lat="46.68689201087645" lon="7.052515259058342"><ele></ele><time>2016-8-29T0:57:51Z</time></trkpt>
<trkpt lat="46.68731107946503" lon="7.053743646040716"><ele></ele><time>2016-8-29T0:57:54Z</time></trkpt>
<trkpt lat="46.68740569757609" lon="7.05435142206466"><ele></ele><time>2016-8-29T0:57:57Z</time></trkpt>
<trkpt lat="46.687301497913715" lon="7.054883332708838"><ele></ele><time>2016-8-29T0:58:0Z</time></trkpt>
<trkpt lat="46.68731506984459" lon="7.055180136457423"><ele></ele><time>2016-8-29T0:58:3Z</time></trkpt>
<trkpt lat="46.68741664899906" lon="7.055612395787474"><ele></ele><time>2016-8-29T0:58:6Z</time></trkpt>
<trkpt lat="46.687593836883174" lon="7.055884731926148"><ele></ele><time>2016-8-29T0:58:9Z</time></trkpt>
<trkpt lat="46.687901788958044" lon="7.055895726413303"><ele></ele><time>2016-8-29T0:58:12Z</time></trkpt>
<trkpt lat="46.68837127098652" lon="7.055468438744149"><ele></ele><time>2016-8-29T0:58:15Z</time></trkpt>
<trkpt lat="46.689341229781704" lon="7.055418443523709"><ele></ele><time>2016-8-29T0:58:18Z</time></trkpt>
<trkpt lat="46.68960743507764" lon="7.055636552855885"><ele></ele><time>2016-8-29T0:58:21Z</time></trkpt>
<trkpt lat="46.68992637423084" lon="7.055353929872322"><ele></ele><time>2016-8-29T0:58:24Z</time></trkpt>
<trkpt lat="46.69043607626414" lon="7.0555073421573145"><ele></ele><time>2016-8-29T0:58:27Z</time></trkpt>
<trkpt lat="46.69079456192342" lon="7.055933326867954"><ele></ele><time>2016-8-29T0:58:30Z</time></trkpt>
<trkpt lat="46.690907541507585" lon="7.056322671350373"><ele></ele><time>2016-8-29T0:58:33Z</time></trkpt>
<trkpt lat="46.690966450213516" lon="7.057034800323135"><ele></ele><time>2016-8-29T0:58:36Z</time></trkpt>
<trkpt lat="46.69087003210418" lon="7.05816392168668"><ele></ele><time>2016-8-29T0:58:39Z</time></trkpt>
<trkpt lat="46.69094375983386" lon="7.059620867009668"><ele></ele><time>2016-8-29T0:58:42Z</time></trkpt>
<trkpt lat="46.691179852865616" lon="7.060764336716307"><ele></ele><time>2016-8-29T0:58:45Z</time></trkpt>
<trkpt lat="46.69132113189742" lon="7.0625356063874385"><ele></ele><time>2016-8-29T0:58:48Z</time></trkpt>
<trkpt lat="46.69149143919427" lon="7.063134500983599"><ele></ele><time>2016-8-29T0:58:51Z</time></trkpt>
<trkpt lat="46.69184698852919" lon="7.063679340818226"><ele></ele><time>2016-8-29T0:58:54Z</time></trkpt>
<trkpt lat="46.69301508113193" lon="7.06429848155098"><ele></ele><time>2016-8-29T0:58:57Z</time></trkpt>
<trkpt lat="46.69357103508287" lon="7.06517357739483"><ele></ele><time>2016-8-29T0:59:0Z</time></trkpt>
<trkpt lat="46.6937514037589" lon="7.065639703111"><ele></ele><time>2016-8-29T0:59:3Z</time></trkpt>
<trkpt lat="46.694442397049386" lon="7.066237531864448"><ele></ele><time>2016-8-29T0:59:6Z</time></trkpt>
<trkpt lat="46.69447080314754" lon="7.066618741960273"><ele></ele><time>2016-8-29T0:59:9Z</time></trkpt>
<trkpt lat="46.69407432207783" lon="7.06729824440629"><ele></ele><time>2016-8-29T0:59:12Z</time></trkpt>
<trkpt lat="46.69406894578637" lon="7.06781984977868"><ele></ele><time>2016-8-29T0:59:15Z</time></trkpt>
<trkpt lat="46.69430766154679" lon="7.0678994049340345"><ele></ele><time>2016-8-29T0:59:18Z</time></trkpt>
<trkpt lat="46.694910327478034" lon="7.0676946627160335"><ele></ele><time>2016-8-29T0:59:21Z</time></trkpt>
<trkpt lat="46.695496137243246" lon="7.067863165712485"><ele></ele><time>2016-8-29T0:59:24Z</time></trkpt>
<trkpt lat="46.69595017356286" lon="7.0684454770392104"><ele></ele><time>2016-8-29T0:59:27Z</time></trkpt>
<trkpt lat="46.69670669648147" lon="7.06980052946692"><ele></ele><time>2016-8-29T0:59:30Z</time></trkpt>
<trkpt lat="46.6967793694709" lon="7.06973037629452"><ele></ele><time>2016-8-29T0:59:33Z</time></trkpt>
<trkpt lat="46.69671324783425" lon="7.069208097138259"><ele></ele><time>2016-8-29T0:59:36Z</time></trkpt>
<trkpt lat="46.69677629229249" lon="7.068666713160234"><ele></ele><time>2016-8-29T0:59:39Z</time></trkpt>
<trkpt lat="46.696918209197904" lon="7.0681953216512206"><ele></ele><time>2016-8-29T0:59:42Z</time></trkpt>
<trkpt lat="46.69725885762327" lon="7.067909849763359"><ele></ele><time>2016-8-29T0:59:45Z</time></trkpt>
<trkpt lat="46.69746154347078" lon="7.067443406366637"><ele></ele><time>2016-8-29T0:59:48Z</time></trkpt>
<trkpt lat="46.69766482873562" lon="7.066419315270542"><ele></ele><time>2016-8-29T0:59:51Z</time></trkpt>
<trkpt lat="46.697696691993634" lon="7.065896286241215"><ele></ele><time>2016-8-29T0:59:54Z</time></trkpt>
<trkpt lat="46.69779853546456" lon="7.065767544942731"><ele></ele><time>2016-8-29T0:59:57Z</time></trkpt>
<trkpt lat="46.69839616498287" lon="7.06588357781389"><ele></ele><time>2016-8-29T1:0:0Z</time></trkpt>
<trkpt lat="46.69861962254384" lon="7.066099002851093"><ele></ele><time>2016-8-29T1:0:3Z</time></trkpt>
<trkpt lat="46.69901724864084" lon="7.066672175297072"><ele></ele><time>2016-8-29T1:0:6Z</time></trkpt>
<trkpt lat="46.69939382671066" lon="7.067657819990815"><ele></ele><time>2016-8-29T1:0:9Z</time></trkpt>
<trkpt lat="46.69951997173084" lon="7.067796294728779"><ele></ele><time>2016-8-29T1:0:12Z</time></trkpt>
<trkpt lat="46.69970722538972" lon="7.067745006083332"><ele></ele><time>2016-8-29T1:0:15Z</time></trkpt>
<trkpt lat="46.699658552425944" lon="7.066596683772006"><ele></ele><time>2016-8-29T1:0:18Z</time></trkpt>
<trkpt lat="46.69951691173933" lon="7.065978176996383"><ele></ele><time>2016-8-29T1:0:21Z</time></trkpt>
<trkpt lat="46.6995062849279" lon="7.065176028827811"><ele></ele><time>2016-8-29T1:0:24Z</time></trkpt>
<trkpt lat="46.699350229311484" lon="7.064470182000811"><ele></ele><time>2016-8-29T1:0:27Z</time></trkpt>
<trkpt lat="46.6998414263267" lon="7.063791689860512"><ele></ele><time>2016-8-29T1:0:30Z</time></trkpt>
<trkpt lat="46.700167416751675" lon="7.063051918477479"><ele></ele><time>2016-8-29T1:0:33Z</time></trkpt>
<trkpt lat="46.70085098620402" lon="7.062069339943622"><ele></ele><time>2016-8-29T1:0:36Z</time></trkpt>
<trkpt lat="46.70131311239568" lon="7.060757175037525"><ele></ele><time>2016-8-29T1:0:39Z</time></trkpt>
<trkpt lat="46.701466357902056" lon="7.059720425120657"><ele></ele><time>2016-8-29T1:0:42Z</time></trkpt>
<trkpt lat="46.701532691563855" lon="7.058297181896228"><ele></ele><time>2016-8-29T1:0:45Z</time></trkpt>
<trkpt lat="46.701485266723196" lon="7.057557058120584"><ele></ele><time>2016-8-29T1:0:48Z</time></trkpt>
<trkpt lat="46.701547460883056" lon="7.057549265820399"><ele></ele><time>2016-8-29T1:0:51Z</time></trkpt>
<trkpt lat="46.701636889141675" lon="7.057856215042768"><ele></ele><time>2016-8-29T1:0:54Z</time></trkpt>
<trkpt lat="46.70183391790019" lon="7.0591949808505605"><ele></ele><time>2016-8-29T1:0:57Z</time></trkpt>
<trkpt lat="46.70209893421875" lon="7.0600953765131"><ele></ele><time>2016-8-29T1:1:0Z</time></trkpt>
<trkpt lat="46.70231297118621" lon="7.061748715698375"><ele></ele><time>2016-8-29T1:1:3Z</time></trkpt>
<trkpt lat="46.70235990729347" lon="7.061869165726308"><ele></ele><time>2016-8-29T1:1:6Z</time></trkpt>
<trkpt lat="46.70279660585195" lon="7.0618881288800734"><ele></ele><time>2016-8-29T1:1:9Z</time></trkpt>
<trkpt lat="46.703346809495635" lon="7.061309467952658"><ele></ele><time>2016-8-29T1:1:12Z</time></trkpt>
<trkpt lat="46.70399644195331" lon="7.059898237744928"><ele></ele><time>2016-8-29T1:1:15Z</time></trkpt>
<trkpt lat="46.704621840772035" lon="7.05891900945734"><ele></ele><time>2016-8-29T1:1:18Z</time></trkpt>
<trkpt lat="46.70502511666315" lon="7.058008502530252"><ele></ele><time>2016-8-29T1:1:21Z</time></trkpt>
<trkpt lat="46.705916314894075" lon="7.056675905776009"><ele></ele><time>2016-8-29T1:1:24Z</time></trkpt>
<trkpt lat="46.70636852985585" lon="7.056267309147714"><ele></ele><time>2016-8-29T1:1:27Z</time></trkpt>
<trkpt lat="46.70643776306932" lon="7.05633730117832"><ele></ele><time>2016-8-29T1:1:30Z</time></trkpt>
<trkpt lat="46.706487787950536" lon="7.057005424481337"><ele></ele><time>2016-8-29T1:1:33Z</time></trkpt>
<trkpt lat="46.70642985889717" lon="7.0574360836718615"><ele></ele><time>2016-8-29T1:1:36Z</time></trkpt>
<trkpt lat="46.706217784846366" lon="7.057916691869332"><ele></ele><time>2016-8-29T1:1:39Z</time></trkpt>
<trkpt lat="46.70575232772858" lon="7.05826862628633"><ele></ele><time>2016-8-29T1:1:42Z</time></trkpt>
<trkpt lat="46.70549557586043" lon="7.0588407627569225"><ele></ele><time>2016-8-29T1:1:45Z</time></trkpt>
<trkpt lat="46.705605947832204" lon="7.059635623133936"><ele></ele><time>2016-8-29T1:1:48Z</time></trkpt>
<trkpt lat="46.705564023401124" lon="7.060280859639857"><ele></ele><time>2016-8-29T1:1:51Z</time></trkpt>
<trkpt lat="46.70575905307976" lon="7.061071113859645"><ele></ele><time>2016-8-29T1:1:54Z</time></trkpt>
<trkpt lat="46.705871513540785" lon="7.062174009034369"><ele></ele><time>2016-8-29T1:1:57Z</time></trkpt>
<trkpt lat="46.70615295179163" lon="7.063369951016247"><ele></ele><time>2016-8-29T1:2:0Z</time></trkpt>
<trkpt lat="46.706586739150595" lon="7.066085286405424"><ele></ele><time>2016-8-29T1:2:3Z</time></trkpt>
<trkpt lat="46.70628167893943" lon="7.067909257005194"><ele></ele><time>2016-8-29T1:2:6Z</time></trkpt>
<trkpt lat="46.70642113518134" lon="7.06875600261081"><ele></ele><time>2016-8-29T1:2:9Z</time></trkpt>
<trkpt lat="46.70639840989341" lon="7.06920694762216"><ele></ele><time>2016-8-29T1:2:12Z</time></trkpt>
<trkpt lat="46.70529344138103" lon="7.071912070547899"><ele></ele><time>2016-8-29T1:2:15Z</time></trkpt>
<trkpt lat="46.70528646585527" lon="7.07272997575054"><ele></ele><time>2016-8-29T1:2:18Z</time></trkpt>
<trkpt lat="46.70543821525779" lon="7.074830821364385"><ele></ele><time>2016-8-29T1:2:21Z</time></trkpt>
<trkpt lat="46.7050606701413" lon="7.075830764484116"><ele></ele><time>2016-8-29T1:2:24Z</time></trkpt>
<trkpt lat="46.704999387050044" lon="7.076323198151736"><ele></ele><time>2016-8-29T1:2:27Z</time></trkpt>
<trkpt lat="46.70503539264251" lon="7.0779518862336745"><ele></ele><time>2016-8-29T1:2:30Z</time></trkpt>
<trkpt lat="46.70492348592799" lon="7.078299226961558"><ele></ele><time>2016-8-29T1:2:33Z</time></trkpt>
<trkpt lat="46.704605716775475" lon="7.078736328447383"><ele></ele><time>2016-8-29T1:2:36Z</time></trkpt>
<trkpt lat="46.70447192193803" lon="7.079583899818325"><ele></ele><time>2016-8-29T1:2:39Z</time></trkpt>
<trkpt lat="46.704124807901685" lon="7.080381253937475"><ele></ele><time>2016-8-29T1:2:42Z</time></trkpt>
<trkpt lat="46.70431965943607" lon="7.0816498629556035"><ele></ele><time>2016-8-29T1:2:45Z</time></trkpt>
<trkpt lat="46.704473627650884" lon="7.082005681487511"><ele></ele><time>2016-8-29T1:2:48Z</time></trkpt>
<trkpt lat="46.706084228462885" lon="7.081505439172399"><ele></ele><time>2016-8-29T1:2:51Z</time></trkpt>
<trkpt lat="46.70653886555854" lon="7.081473440971548"><ele></ele><time>2016-8-29T1:2:54Z</time></trkpt>
<trkpt lat="46.70800184121391" lon="7.081830073285092"><ele></ele><time>2016-8-29T1:2:57Z</time></trkpt>
<trkpt lat="46.70900676799382" lon="7.081115897531163"><ele></ele><time>2016-8-29T1:3:0Z</time></trkpt>
<trkpt lat="46.70935653203082" lon="7.0817517640634176"><ele></ele><time>2016-8-29T1:3:3Z</time></trkpt>
<trkpt lat="46.71023628539096" lon="7.082420176395853"><ele></ele><time>2016-8-29T1:3:6Z</time></trkpt>
<trkpt lat="46.710716303628814" lon="7.083107932739676"><ele></ele><time>2016-8-29T1:3:9Z</time></trkpt>
<trkpt lat="46.710990966334286" lon="7.083707418389418"><ele></ele><time>2016-8-29T1:3:12Z</time></trkpt>
<trkpt lat="46.711331853261335" lon="7.0839999620110214"><ele></ele><time>2016-8-29T1:3:15Z</time></trkpt>
<trkpt lat="46.71151876943175" lon="7.084048501663025"><ele></ele><time>2016-8-29T1:3:18Z</time></trkpt>
<trkpt lat="46.71175506545199" lon="7.083641655164051"><ele></ele><time>2016-8-29T1:3:21Z</time></trkpt>
<trkpt lat="46.712164520886695" lon="7.083745609240359"><ele></ele><time>2016-8-29T1:3:24Z</time></trkpt>
<trkpt lat="46.71296014352392" lon="7.083349936046137"><ele></ele><time>2016-8-29T1:3:27Z</time></trkpt>
<trkpt lat="46.71319156556589" lon="7.083498054634812"><ele></ele><time>2016-8-29T1:3:30Z</time></trkpt>
<trkpt lat="46.71360095181794" lon="7.082950735448906"><ele></ele><time>2016-8-29T1:3:33Z</time></trkpt>
<trkpt lat="46.713677064898576" lon="7.082725349741242"><ele></ele><time>2016-8-29T1:3:36Z</time></trkpt>
<trkpt lat="46.714219086776886" lon="7.08069628518465"><ele></ele><time>2016-8-29T1:3:39Z</time></trkpt>
<trkpt lat="46.71440208806538" lon="7.079650819734886"><ele></ele><time>2016-8-29T1:3:42Z</time></trkpt>
<trkpt lat="46.714393047571235" lon="7.079117898438447"><ele></ele><time>2016-8-29T1:3:45Z</time></trkpt>
<trkpt lat="46.71411789103795" lon="7.078116333279504"><ele></ele><time>2016-8-29T1:3:48Z</time></trkpt>
<trkpt lat="46.71383962387916" lon="7.077528246851423"><ele></ele><time>2016-8-29T1:3:51Z</time></trkpt>
<trkpt lat="46.71369520569129" lon="7.077411061381728"><ele></ele><time>2016-8-29T1:3:54Z</time></trkpt>
<trkpt lat="46.71338312693672" lon="7.078259127334272"><ele></ele><time>2016-8-29T1:3:57Z</time></trkpt>
<trkpt lat="46.713239868820125" lon="7.078736553570528"><ele></ele><time>2016-8-29T1:4:0Z</time></trkpt>
<trkpt lat="46.7131822707285" lon="7.079365276916625"><ele></ele><time>2016-8-29T1:4:3Z</time></trkpt>
<trkpt lat="46.71283531582489" lon="7.08053805594"><ele></ele><time>2016-8-29T1:4:6Z</time></trkpt>
<trkpt lat="46.7122939845097" lon="7.081677298577157"><ele></ele><time>2016-8-29T1:4:9Z</time></trkpt>
<trkpt lat="46.71176076729778" lon="7.083546940002061"><ele></ele><time>2016-8-29T1:4:12Z</time></trkpt>
<trkpt lat="46.711283049845754" lon="7.084914676080059"><ele></ele><time>2016-8-29T1:4:15Z</time></trkpt>
<trkpt lat="46.711488810500185" lon="7.085626811263375"><ele></ele><time>2016-8-29T1:4:18Z</time></trkpt>
<trkpt lat="46.712668115968036" lon="7.0871215242795484"><ele></ele><time>2016-8-29T1:4:21Z</time></trkpt>
<trkpt lat="46.71319105939354" lon="7.087381470522071"><ele></ele><time>2016-8-29T1:4:24Z</time></trkpt>
<trkpt lat="46.71398164624856" lon="7.087281007377961"><ele></ele><time>2016-8-29T1:4:27Z</time></trkpt>
<trkpt lat="46.71463878195681" lon="7.087656965108265"><ele></ele><time>2016-8-29T1:4:30Z</time></trkpt>
<trkpt lat="46.7150079120635" lon="7.088128379578895"><ele></ele><time>2016-8-29T1:4:33Z</time></trkpt>
<trkpt lat="46.71519347463032" lon="7.0887360753484066"><ele></ele><time>2016-8-29T1:4:36Z</time></trkpt>
<trkpt lat="46.71512103617252" lon="7.089563029818522"><ele></ele><time>2016-8-29T1:4:39Z</time></trkpt>
<trkpt lat="46.71520951126582" lon="7.091272856543189"><ele></ele><time>2016-8-29T1:4:42Z</time></trkpt>
<trkpt lat="46.715118974208245" lon="7.091814909595334"><ele></ele><time>2016-8-29T1:4:45Z</time></trkpt>
<trkpt lat="46.71522081334516" lon="7.091879454781927"><ele></ele><time>2016-8-29T1:4:48Z</time></trkpt>
<trkpt lat="46.71553748441355" lon="7.091818784156193"><ele></ele><time>2016-8-29T1:4:51Z</time></trkpt>
<trkpt lat="46.71591467930285" lon="7.091480004998578"><ele></ele><time>2016-8-29T1:4:54Z</time></trkpt>
<trkpt lat="46.71693814180909" lon="7.090246655438262"><ele></ele><time>2016-8-29T1:4:57Z</time></trkpt>
<trkpt lat="46.7174044688765" lon="7.0884709721957915"><ele></ele><time>2016-8-29T1:5:0Z</time></trkpt>
<trkpt lat="46.71737606461273" lon="7.0880009980962555"><ele></ele><time>2016-8-29T1:5:3Z</time></trkpt>
<trkpt lat="46.71717750747907" lon="7.087507546991339"><ele></ele><time>2016-8-29T1:5:6Z</time></trkpt>
<trkpt lat="46.71693385275702" lon="7.087136972411802"><ele></ele><time>2016-8-29T1:5:9Z</time></trkpt>
<trkpt lat="46.71660972407852" lon="7.087093623345215"><ele></ele><time>2016-8-29T1:5:12Z</time></trkpt>
<trkpt lat="46.71644761118335" lon="7.087368793604657"><ele></ele><time>2016-8-29T1:5:15Z</time></trkpt>
<trkpt lat="46.716211555323994" lon="7.08828064923408"><ele></ele><time>2016-8-29T1:5:18Z</time></trkpt>
<trkpt lat="46.715903586583806" lon="7.089006675019651"><ele></ele><time>2016-8-29T1:5:21Z</time></trkpt>
<trkpt lat="46.71528549711452" lon="7.089237903551946"><ele></ele><time>2016-8-29T1:5:24Z</time></trkpt>
<trkpt lat="46.71516469789358" lon="7.089929404415268"><ele></ele><time>2016-8-29T1:5:27Z</time></trkpt>
<trkpt lat="46.715188972988976" lon="7.091385843558235"><ele></ele><time>2016-8-29T1:5:30Z</time></trkpt>
<trkpt lat="46.71505007161948" lon="7.091951028458059"><ele></ele><time>2016-8-29T1:5:33Z</time></trkpt>
<trkpt lat="46.71561254402681" lon="7.093727764069438"><ele></ele><time>2016-8-29T1:5:36Z</time></trkpt>
<trkpt lat="46.71570800189912" lon="7.094285667284783"><ele></ele><time>2016-8-29T1:5:39Z</time></trkpt>
<trkpt lat="46.71575112809251" lon="7.096118370504444"><ele></ele><time>2016-8-29T1:5:42Z</time></trkpt>
</trkseg></trk></gpx>